Observation data for Colorado City on 08/14/2020      Previous  Date  Next       Current Mesonet Observations  Soil Data  Daily Summary Page  Observations in Plain Language
KCO2 140500Z 19007KT 31/12 A2994 RMK A01 T03080117  RH  031%=      5-min Rain = 0
KCO2 140501Z 19006KT 31/12 A2994 RMK A01 T03080117  RH  031%=      5-min Rain = 0
KCO2 140502Z 19007KT 31/12 A2994 RMK A01 T03080118  RH  031%=      5-min Rain = 0
KCO2 140503Z 19007KT 31/12 A2994 RMK A01 T03080118  RH  031%=      5-min Rain = 0
KCO2 140504Z 19007KT 31/12 A2994 RMK A01 T03080118  RH  031%=      5-min Rain = 0
KCO2 140505Z 19007KT 31/12 A2994 RMK A01 T03070118  RH  031%=      5-min Rain = 0
KCO2 140506Z 19007KT 31/12 A2994 RMK A01 T03080118  RH  031%=      5-min Rain = 0
KCO2 140507Z 18007KT 31/12 A2994 RMK A01 T03070118  RH  031%=      5-min Rain = 0
KCO2 140508Z 18007KT 31/12 A2994 RMK A01 T03060118  RH  031%=      5-min Rain = 0
KCO2 140509Z 18007KT 31/12 A2994 RMK A01 T03060119  RH  032%=      5-min Rain = 0
KCO2 140510Z 18006KT 31/12 A2994 RMK A01 T03060119  RH  032%=      5-min Rain = 0
KCO2 140511Z 18007KT 31/12 A2994 RMK A01 T03050119  RH  032%=      5-min Rain = 0
KCO2 140512Z 18007KT 31/12 A2994 RMK A01 T03050119  RH  032%=      5-min Rain = 0
KCO2 140513Z 18007KT 30/12 A2994 RMK A01 T03040119  RH  032%=      5-min Rain = 0
KCO2 140514Z 18007KT 30/12 A2994 RMK A01 T03030119  RH  032%=      5-min Rain = 0
KCO2 140515Z 18007KT 30/12 A2994 RMK A01 T03030120  RH  032%=      5-min Rain = 0
KCO2 140516Z 18007KT 30/12 A2994 RMK A01 T03030120  RH  032%=      5-min Rain = 0
KCO2 140517Z 18007KT 30/12 A2994 RMK A01 T03030121  RH  033%=      5-min Rain = 0
KCO2 140518Z 18007KT 30/12 A2994 RMK A01 T03020121  RH  033%=      5-min Rain = 0
KCO2 140519Z 18006KT 30/12 A2994 RMK A01 T03010121  RH  033%=      5-min Rain = 0
KCO2 140520Z 18006KT 30/12 A2994 RMK A01 T03010121  RH  033%=      5-min Rain = 0
KCO2 140521Z 19006KT 30/12 A2994 RMK A01 T03000121  RH  033%=      5-min Rain = 0
KCO2 140522Z 19007KT 30/12 A2994 RMK A01 T03000122  RH  033%=      5-min Rain = 0
KCO2 140523Z 19007KT 30/12 A2994 RMK A01 T03010123  RH  033%=      5-min Rain = 0
KCO2 140524Z 19006KT 30/12 A2994 RMK A01 T03000122  RH  033%=      5-min Rain = 0
KCO2 140525Z 19007KT 30/12 A2994 RMK A01 T03000122  RH  033%=      5-min Rain = 0
KCO2 140526Z 19006KT 30/12 A2994 RMK A01 T03010122  RH  033%=      5-min Rain = 0
KCO2 140527Z 19007KT 30/12 A2994 RMK A01 T03010123  RH  034%=      5-min Rain = 0
KCO2 140528Z 19007KT 30/12 A2994 RMK A01 T03010123  RH  034%=      5-min Rain = 0
KCO2 140529Z 19007KT 30/12 A2994 RMK A01 T03010123  RH  034%=      5-min Rain = 0
KCO2 140530Z 19007KT 30/12 A2994 RMK A01 T03010123  RH  034%=      5-min Rain = 0
KCO2 140531Z 19007KT 30/12 A2994 RMK A01 T03010124  RH  034%=      5-min Rain = 0
KCO2 140532Z 19007KT 30/12 A2994 RMK A01 T03010124  RH  034%=      5-min Rain = 0
KCO2 140533Z 19006KT 30/12 A2994 RMK A01 T03000124  RH  034%=      5-min Rain = 0
KCO2 140534Z 19007KT 30/12 A2994 RMK A01 T03000124  RH  034%=      5-min Rain = 0
KCO2 140535Z 19006KT 30/12 A2994 RMK A01 T03000124  RH  034%=      5-min Rain = 0
KCO2 140536Z 19006KT 30/12 A2994 RMK A01 T02990124  RH  034%=      5-min Rain = 0
KCO2 140537Z 19006KT 30/12 A2994 RMK A01 T02990124  RH  034%=      5-min Rain = 0
KCO2 140538Z 19007KT 30/12 A2994 RMK A01 T03000124  RH  034%=      5-min Rain = 0
KCO2 140539Z 19006KT 30/12 A2994 RMK A01 T03000124  RH  034%=      5-min Rain = 0
KCO2 140540Z 19006KT 30/12 A2995 RMK A01 T02990124  RH  034%=      5-min Rain = 0
KCO2 140541Z 20005KT 30/12 A2995 RMK A01 T02990124  RH  034%=      5-min Rain = 0
KCO2 140542Z 20005KT 30/12 A2995 RMK A01 T02980124  RH  034%=      5-min Rain = 0
KCO2 140543Z 20006KT 30/12 A2995 RMK A01 T02970124  RH  035%=      5-min Rain = 0
KCO2 140544Z 20006KT 30/12 A2995 RMK A01 T02970124  RH  035%=      5-min Rain = 0
KCO2 140545Z 19006KT 30/12 A2995 RMK A01 T02960124  RH  035%=      5-min Rain = 0
KCO2 140546Z 19006KT 30/13 A2995 RMK A01 T02960125  RH  035%=      5-min Rain = 0
KCO2 140547Z 19006KT 30/13 A2995 RMK A01 T02960125  RH  035%=      5-min Rain = 0
KCO2 140548Z 19006KT 30/13 A2995 RMK A01 T02960125  RH  035%=      5-min Rain = 0
KCO2 140549Z 19006KT 30/13 A2995 RMK A01 T02950125  RH  035%=      5-min Rain = 0
KCO2 140550Z 19005KT 30/13 A2995 RMK A01 T02950125  RH  035%=      5-min Rain = 0
KCO2 140551Z 19005KT 29/13 A2995 RMK A01 T02940125  RH  035%=      5-min Rain = 0
KCO2 140552Z 19006KT 29/13 A2995 RMK A01 T02930125  RH  035%=      5-min Rain = 0
KCO2 140553Z 19006KT 29/13 A2995 RMK A01 T02920125  RH  036%=      5-min Rain = 0
KCO2 140554Z 19006KT 29/13 A2995 RMK A01 T02910125  RH  036%=      5-min Rain = 0
KCO2 140555Z 19006KT 29/13 A2995 RMK A01 T02900125  RH  036%=      5-min Rain = 0
KCO2 140556Z 19005KT 29/13 A2995 RMK A01 T02900125  RH  036%=      5-min Rain = 0
KCO2 140557Z 19006KT 29/13 A2995 RMK A01 T02890125  RH  036%=      5-min Rain = 0
KCO2 140558Z 19005KT 29/13 A2995 RMK A01 T02880125  RH  036%=      5-min Rain = 0
KCO2 140559Z 19005KT 29/13 A2995 RMK A01 T02880125  RH  037%=      5-min Rain = 0
KCO2 140600Z 19005KT 29/13 A2995 RMK A01 T02870125  RH  037%=      5-min Rain = 0
KCO2 140601Z 19005KT 29/13 A2995 RMK A01 T02860125  RH  037%=      5-min Rain = 0
KCO2 140602Z 20005KT 29/13 A2995 RMK A01 T02860125  RH  037%=      5-min Rain = 0
KCO2 140603Z 20005KT 29/13 A2995 RMK A01 T02850125  RH  037%=      5-min Rain = 0
KCO2 140604Z 20005KT 29/13 A2995 RMK A01 T02850125  RH  037%=      5-min Rain = 0
KCO2 140605Z 20004KT 29/13 A2995 RMK A01 T02850125  RH  037%=      5-min Rain = 0
KCO2 140606Z 20004KT 28/13 A2995 RMK A01 T02840125  RH  037%=      5-min Rain = 0
KCO2 140607Z 20004KT 28/13 A2995 RMK A01 T02840125  RH  037%=      5-min Rain = 0
KCO2 140608Z 20004KT 28/13 A2995 RMK A01 T02840125  RH  038%=      5-min Rain = 0
KCO2 140609Z 20004KT 28/13 A2995 RMK A01 T02830125  RH  038%=      5-min Rain = 0
KCO2 140610Z 20004KT 28/13 A2995 RMK A01 T02830125  RH  038%=      5-min Rain = 0
KCO2 140611Z 21004KT 28/13 A2995 RMK A01 T02820125  RH  038%=      5-min Rain = 0
KCO2 140612Z 20004KT 28/13 A2995 RMK A01 T02820125  RH  038%=      5-min Rain = 0
KCO2 140613Z 20004KT 28/13 A2995 RMK A01 T02820125  RH  038%=      5-min Rain = 0
KCO2 140614Z 20004KT 28/13 A2995 RMK A01 T02820125  RH  038%=      5-min Rain = 0
KCO2 140615Z 20004KT 28/13 A2995 RMK A01 T02820125  RH  038%=      5-min Rain = 0
KCO2 140616Z 20004KT 28/13 A2995 RMK A01 T02820125  RH  038%=      5-min Rain = 0
KCO2 140617Z 20004KT 28/13 A2995 RMK A01 T02820125  RH  038%=      5-min Rain = 0
KCO2 140618Z 20004KT 28/13 A2995 RMK A01 T02820125  RH  038%=      5-min Rain = 0
KCO2 140619Z 20004KT 28/13 A2995 RMK A01 T02820125  RH  038%=      5-min Rain = 0
KCO2 140620Z 20004KT 28/13 A2995 RMK A01 T02810125  RH  038%=      5-min Rain = 0
KCO2 140621Z 20004KT 28/13 A2995 RMK A01 T02810125  RH  038%=      5-min Rain = 0
KCO2 140622Z 19005KT 28/13 A2995 RMK A01 T02800125  RH  038%=      5-min Rain = 0
KCO2 140623Z 19004KT 28/13 A2995 RMK A01 T02790125  RH  038%=      5-min Rain = 0
KCO2 140624Z 19004KT 28/13 A2995 RMK A01 T02790125  RH  039%=      5-min Rain = 0
KCO2 140625Z 19005KT 28/13 A2995 RMK A01 T02770125  RH  039%=      5-min Rain = 0
KCO2 140626Z 19005KT 28/13 A2995 RMK A01 T02750125  RH  039%=      5-min Rain = 0
KCO2 140627Z 19005KT 27/13 A2995 RMK A01 T02740125  RH  040%=      5-min Rain = 0
KCO2 140628Z 19005KT 27/13 A2995 RMK A01 T02730125  RH  040%=      5-min Rain = 0
KCO2 140629Z 18005KT 27/13 A2995 RMK A01 T02720125  RH  040%=      5-min Rain = 0
KCO2 140630Z 18005KT 27/13 A2995 RMK A01 T02720125  RH  040%=      5-min Rain = 0
KCO2 140631Z 19005KT 27/13 A2995 RMK A01 T02710125  RH  040%=      5-min Rain = 0
KCO2 140632Z 19005KT 27/13 A2995 RMK A01 T02700125  RH  041%=      5-min Rain = 0
KCO2 140633Z 19005KT 27/13 A2995 RMK A01 T02700125  RH  041%=      5-min Rain = 0
KCO2 140634Z 18006KT 27/13 A2995 RMK A01 T02700125  RH  041%=      5-min Rain = 0
KCO2 140635Z 19005KT 27/13 A2995 RMK A01 T02700126  RH  041%=      5-min Rain = 0
KCO2 140636Z 19006KT 27/13 A2995 RMK A01 T02700125  RH  041%=      5-min Rain = 0
KCO2 140637Z 18006KT 27/13 A2995 RMK A01 T02690125  RH  041%=      5-min Rain = 0
KCO2 140638Z 18006KT 27/13 A2995 RMK A01 T02690125  RH  041%=      5-min Rain = 0
KCO2 140639Z 18006KT 27/13 A2995 RMK A01 T02690125  RH  041%=      5-min Rain = 0
KCO2 140640Z 18006KT 27/13 A2995 RMK A01 T02690126  RH  041%=      5-min Rain = 0
KCO2 140641Z 18006KT 27/13 A2995 RMK A01 T02690126  RH  041%=      5-min Rain = 0
KCO2 140642Z 18006KT 27/13 A2995 RMK A01 T02690126  RH  041%=      5-min Rain = 0
KCO2 140643Z 18006KT 27/13 A2995 RMK A01 T02690126  RH  041%=      5-min Rain = 0
KCO2 140644Z 18007KT 27/13 A2995 RMK A01 T02700126  RH  041%=      5-min Rain = 0
KCO2 140645Z 18007KT 27/13 A2995 RMK A01 T02710126  RH  041%=      5-min Rain = 0
KCO2 140646Z 18006KT 27/13 A2995 RMK A01 T02720127  RH  041%=      5-min Rain = 0
KCO2 140647Z 18006KT 27/13 A2995 RMK A01 T02730127  RH  041%=      5-min Rain = 0
KCO2 140648Z 18006KT 27/13 A2995 RMK A01 T02730127  RH  040%=      5-min Rain = 0
KCO2 140649Z 18006KT 27/13 A2995 RMK A01 T02730127  RH  040%=      5-min Rain = 0
KCO2 140650Z 18006KT 27/13 A2995 RMK A01 T02730127  RH  040%=      5-min Rain = 0
KCO2 140651Z 18005KT 27/13 A2995 RMK A01 T02740127  RH  040%=      5-min Rain = 0
KCO2 140652Z 18006KT 28/13 A2995 RMK A01 T02750128  RH  040%=      5-min Rain = 0
KCO2 140653Z 18005KT 28/13 A2995 RMK A01 T02750128  RH  040%=      5-min Rain = 0
KCO2 140654Z 19005KT 27/13 A2995 RMK A01 T02740128  RH  040%=      5-min Rain = 0
KCO2 140655Z 19005KT 27/13 A2995 RMK A01 T02740128  RH  040%=      5-min Rain = 0
KCO2 140656Z 19004KT 27/13 A2995 RMK A01 T02740129  RH  041%=      5-min Rain = 0
KCO2 140657Z 19005KT 27/13 A2995 RMK A01 T02740129  RH  041%=      5-min Rain = 0
KCO2 140658Z 20005KT 27/13 A2995 RMK A01 T02740129  RH  041%=      5-min Rain = 0
KCO2 140659Z 20005KT 27/13 A2995 RMK A01 T02740129  RH  041%=      5-min Rain = 0
KCO2 140700Z 20005KT 27/13 A2995 RMK A01 T02740129  RH  041%=      5-min Rain = 0
KCO2 140701Z 20005KT 27/13 A2995 RMK A01 T02740130  RH  041%=      5-min Rain = 0
KCO2 140702Z 21005KT 27/13 A2995 RMK A01 T02740129  RH  041%=      5-min Rain = 0
KCO2 140703Z 20005KT 27/13 A2995 RMK A01 T02740129  RH  041%=      5-min Rain = 0
KCO2 140704Z 20005KT 27/13 A2995 RMK A01 T02740129  RH  041%=      5-min Rain = 0
KCO2 140705Z 20005KT 27/13 A2995 RMK A01 T02740130  RH  041%=      5-min Rain = 0
KCO2 140706Z 19006KT 27/13 A2995 RMK A01 T02740130  RH  041%=      5-min Rain = 0
KCO2 140707Z 19006KT 27/13 A2995 RMK A01 T02740130  RH  041%=      5-min Rain = 0
KCO2 140708Z 19006KT 27/13 A2995 RMK A01 T02730130  RH  041%=      5-min Rain = 0
KCO2 140709Z 19007KT 27/13 A2995 RMK A01 T02740131  RH  041%=      5-min Rain = 0
KCO2 140710Z 19007KT 27/13 A2995 RMK A01 T02730131  RH  041%=      5-min Rain = 0
KCO2 140711Z 18006KT 27/13 A2995 RMK A01 T02740131  RH  041%=      5-min Rain = 0
KCO2 140712Z 19007KT 27/13 A2995 RMK A01 T02740131  RH  041%=      5-min Rain = 0
KCO2 140713Z 18007KT 27/13 A2995 RMK A01 T02740132  RH  041%=      5-min Rain = 0
KCO2 140714Z 18007KT 27/13 A2995 RMK A01 T02740132  RH  041%=      5-min Rain = 0
KCO2 140715Z 18007KT 27/13 A2995 RMK A01 T02740132  RH  041%=      5-min Rain = 0
KCO2 140716Z 18007KT 28/13 A2995 RMK A01 T02750132  RH  041%=      5-min Rain = 0
KCO2 140717Z 18007KT 28/13 A2995 RMK A01 T02750132  RH  041%=      5-min Rain = 0
KCO2 140718Z 18006KT 28/13 A2995 RMK A01 T02750132  RH  041%=      5-min Rain = 0
KCO2 140719Z 18006KT 28/13 A2995 RMK A01 T02750132  RH  041%=      5-min Rain = 0
KCO2 140720Z 19007KT 28/13 A2995 RMK A01 T02750132  RH  041%=      5-min Rain = 0
KCO2 140721Z 19007KT 27/13 A2996 RMK A01 T02740133  RH  042%=      5-min Rain = 0
KCO2 140722Z 18007KT 27/13 A2995 RMK A01 T02740133  RH  042%=      5-min Rain = 0
KCO2 140723Z 18007KT 28/13 A2995 RMK A01 T02750133  RH  042%=      5-min Rain = 0
KCO2 140724Z 19006KT 27/13 A2995 RMK A01 T02740133  RH  042%=      5-min Rain = 0
KCO2 140725Z 19007KT 27/13 A2995 RMK A01 T02730133  RH  042%=      5-min Rain = 0
KCO2 140726Z 19007KT 27/13 A2995 RMK A01 T02740133  RH  042%=      5-min Rain = 0
KCO2 140727Z 19006KT 27/13 A2995 RMK A01 T02740133  RH  042%=      5-min Rain = 0
KCO2 140728Z 19006KT 27/13 A2995 RMK A01 T02740133  RH  042%=      5-min Rain = 0
KCO2 140729Z 19006KT 27/13 A2995 RMK A01 T02740133  RH  042%=      5-min Rain = 0
KCO2 140730Z 19006KT 27/13 A2995 RMK A01 T02740133  RH  042%=      5-min Rain = 0
KCO2 140731Z 19006KT 27/13 A2995 RMK A01 T02740133  RH  042%=      5-min Rain = 0
KCO2 140732Z 19006KT 27/13 A2995 RMK A01 T02730133  RH  042%=      5-min Rain = 0
KCO2 140733Z 19007KT 27/13 A2996 RMK A01 T02740133  RH  042%=      5-min Rain = 0
KCO2 140734Z 19007KT 27/13 A2996 RMK A01 T02740133  RH  042%=      5-min Rain = 0
KCO2 140735Z 19006KT 27/13 A2996 RMK A01 T02740134  RH  042%=      5-min Rain = 0
KCO2 140736Z 19007KT 28/13 A2996 RMK A01 T02750133  RH  042%=      5-min Rain = 0
KCO2 140737Z 19007KT 28/13 A2996 RMK A01 T02760134  RH  042%=      5-min Rain = 0
KCO2 140738Z 19007KT 28/13 A2996 RMK A01 T02770134  RH  041%=      5-min Rain = 0
KCO2 140739Z 19006KT 28/13 A2996 RMK A01 T02780134  RH  041%=      5-min Rain = 0
KCO2 140740Z 19006KT 28/13 A2996 RMK A01 T02790134  RH  041%=      5-min Rain = 0
KCO2 140741Z 19006KT 28/13 A2996 RMK A01 T02790134  RH  041%=      5-min Rain = 0
KCO2 140742Z 19006KT 28/13 A2996 RMK A01 T02790134  RH  041%=      5-min Rain = 0
KCO2 140743Z 19006KT 28/13 A2996 RMK A01 T02790134  RH  041%=      5-min Rain = 0
KCO2 140744Z 19006KT 28/13 A2996 RMK A01 T02790134  RH  041%=      5-min Rain = 0
KCO2 140745Z 19007KT 28/13 A2996 RMK A01 T02780134  RH  041%=      5-min Rain = 0
KCO2 140746Z 19007KT 28/13 A2996 RMK A01 T02780134  RH  041%=      5-min Rain = 0
KCO2 140747Z 19007KT 28/13 A2995 RMK A01 T02780134  RH  041%=      5-min Rain = 0
KCO2 140748Z 19007KT 28/14 A2995 RMK A01 T02790135  RH  041%=      5-min Rain = 0
KCO2 140749Z 19008KT 28/14 A2995 RMK A01 T02790135  RH  041%=      5-min Rain = 0
KCO2 140750Z 19007KT 28/14 A2995 RMK A01 T02800135  RH  041%=      5-min Rain = 0
KCO2 140751Z 19008KT 28/14 A2995 RMK A01 T02810135  RH  041%=      5-min Rain = 0
KCO2 140752Z 19008KT 28/14 A2995 RMK A01 T02820136  RH  040%=      5-min Rain = 0
KCO2 140753Z 19007KT 28/14 A2995 RMK A01 T02830136  RH  040%=      5-min Rain = 0
KCO2 140754Z 19007KT 28/14 A2995 RMK A01 T02840136  RH  040%=      5-min Rain = 0
KCO2 140755Z 19007KT 29/14 A2995 RMK A01 T02850136  RH  040%=      5-min Rain = 0
KCO2 140756Z 19007KT 29/14 A2995 RMK A01 T02850136  RH  040%=      5-min Rain = 0
KCO2 140757Z 18007KT 29/14 A2995 RMK A01 T02850136  RH  040%=      5-min Rain = 0
KCO2 140758Z 19008KT 28/14 A2995 RMK A01 T02840136  RH  040%=      5-min Rain = 0
KCO2 140759Z 18007KT 28/14 A2995 RMK A01 T02830136  RH  040%=      5-min Rain = 0
KCO2 140800Z 18007KT 28/14 A2995 RMK A01 T02830136  RH  040%=      5-min Rain = 0
KCO2 140801Z 18008KT 28/14 A2995 RMK A01 T02830136  RH  040%=      5-min Rain = 0
KCO2 140802Z 19008KT 28/14 A2995 RMK A01 T02830136  RH  041%=      5-min Rain = 0
KCO2 140803Z 19008KT 28/14 A2995 RMK A01 T02820136  RH  041%=      5-min Rain = 0
KCO2 140804Z 19007KT 28/14 A2995 RMK A01 T02830136  RH  040%=      5-min Rain = 0
KCO2 140805Z 19008KT 28/14 A2995 RMK A01 T02840137  RH  040%=      5-min Rain = 0
KCO2 140806Z 20008KT 29/14 A2996 RMK A01 T02850136  RH  040%=      5-min Rain = 0
KCO2 140807Z 20007KT 29/14 A2996 RMK A01 T02860137  RH  040%=      5-min Rain = 0
KCO2 140808Z 20007KT 29/14 A2996 RMK A01 T02870136  RH  040%=      5-min Rain = 0
KCO2 140809Z 19008KT 29/14 A2996 RMK A01 T02880137  RH  040%=      5-min Rain = 0
KCO2 140810Z 19008KT 29/14 A2996 RMK A01 T02880137  RH  039%=      5-min Rain = 0
KCO2 140811Z 20007KT 29/14 A2996 RMK A01 T02890137  RH  039%=      5-min Rain = 0
KCO2 140812Z 20006KT 29/14 A2996 RMK A01 T02890137  RH  039%=      5-min Rain = 0
KCO2 140813Z 20007KT 29/14 A2996 RMK A01 T02890137  RH  039%=      5-min Rain = 0
KCO2 140814Z 20008KT 29/14 A2996 RMK A01 T02890137  RH  039%=      5-min Rain = 0
KCO2 140815Z 19008KT 29/14 A2996 RMK A01 T02890137  RH  039%=      5-min Rain = 0
KCO2 140816Z 20009KT 29/14 A2996 RMK A01 T02900138  RH  039%=      5-min Rain = 0
KCO2 140817Z 19007KT 29/14 A2996 RMK A01 T02900137  RH  039%=      5-min Rain = 0
KCO2 140818Z 20008KT 29/14 A2996 RMK A01 T02900137  RH  039%=      5-min Rain = 0
KCO2 140819Z 19008KT 29/14 A2996 RMK A01 T02910137  RH  039%=      5-min Rain = 0
KCO2 140820Z 19008KT 29/14 A2996 RMK A01 T02910137  RH  039%=      5-min Rain = 0
KCO2 140821Z 20007KT 29/14 A2996 RMK A01 T02900137  RH  039%=      5-min Rain = 0
KCO2 140822Z 19008KT 29/14 A2996 RMK A01 T02910138  RH  039%=      5-min Rain = 0
KCO2 140823Z 20008KT 29/14 A2996 RMK A01 T02910138  RH  039%=      5-min Rain = 0
KCO2 140824Z 20007KT 29/14 A2996 RMK A01 T02900137  RH  039%=      5-min Rain = 0
KCO2 140825Z 20008KT 29/14 A2996 RMK A01 T02900138  RH  039%=      5-min Rain = 0
KCO2 140826Z 20007KT 29/14 A2996 RMK A01 T02890137  RH  039%=      5-min Rain = 0
KCO2 140827Z 20006KT 29/14 A2996 RMK A01 T02890137  RH  039%=      5-min Rain = 0
KCO2 140828Z 20007KT 29/14 A2996 RMK A01 T02880137  RH  040%=      5-min Rain = 0
KCO2 140829Z 20007KT 29/14 A2996 RMK A01 T02880138  RH  040%=      5-min Rain = 0
KCO2 140830Z 20007KT 29/14 A2996 RMK A01 T02880138  RH  040%=      5-min Rain = 0
KCO2 140831Z 20007KT 29/14 A2996 RMK A01 T02870138  RH  040%=      5-min Rain = 0
KCO2 140832Z 20007KT 29/14 A2996 RMK A01 T02870137  RH  040%=      5-min Rain = 0
KCO2 140833Z 20007KT 29/14 A2996 RMK A01 T02860137  RH  040%=      5-min Rain = 0
KCO2 140834Z 20007KT 29/14 A2996 RMK A01 T02870138  RH  040%=      5-min Rain = 0
KCO2 140835Z 20006KT 29/14 A2996 RMK A01 T02860138  RH  040%=      5-min Rain = 0
KCO2 140836Z 20007KT 29/14 A2996 RMK A01 T02850138  RH  040%=      5-min Rain = 0
KCO2 140837Z 20007KT 29/14 A2996 RMK A01 T02850137  RH  040%=      5-min Rain = 0
KCO2 140838Z 20007KT 29/14 A2996 RMK A01 T02850138  RH  040%=      5-min Rain = 0
KCO2 140839Z 20006KT 28/14 A2996 RMK A01 T02840137  RH  040%=      5-min Rain = 0
KCO2 140840Z 19006KT 28/14 A2996 RMK A01 T02840138  RH  041%=      5-min Rain = 0
KCO2 140841Z 19006KT 28/14 A2996 RMK A01 T02840138  RH  041%=      5-min Rain = 0
KCO2 140842Z 20005KT 28/14 A2996 RMK A01 T02830137  RH  041%=      5-min Rain = 0
KCO2 140843Z 20006KT 28/14 A2996 RMK A01 T02830138  RH  041%=      5-min Rain = 0
KCO2 140844Z 20006KT 28/14 A2996 RMK A01 T02820137  RH  041%=      5-min Rain = 0
KCO2 140845Z 20005KT 28/14 A2996 RMK A01 T02820138  RH  041%=      5-min Rain = 0
KCO2 140846Z 20005KT 28/14 A2996 RMK A01 T02810137  RH  041%=      5-min Rain = 0
KCO2 140847Z 20005KT 28/14 A2995 RMK A01 T02800137  RH  041%=      5-min Rain = 0
KCO2 140848Z 20006KT 28/14 A2995 RMK A01 T02800137  RH  042%=      5-min Rain = 0
KCO2 140849Z 19005KT 28/14 A2995 RMK A01 T02790137  RH  042%=      5-min Rain = 0
KCO2 140850Z 20006KT 28/14 A2995 RMK A01 T02790137  RH  042%=      5-min Rain = 0
KCO2 140851Z 20006KT 28/14 A2995 RMK A01 T02790138  RH  042%=      5-min Rain = 0
KCO2 140852Z 19004KT 28/14 A2995 RMK A01 T02790138  RH  042%=      5-min Rain = 0
KCO2 140853Z 20005KT 28/14 A2995 RMK A01 T02780137  RH  042%=      5-min Rain = 0
KCO2 140854Z 19005KT 28/14 A2995 RMK A01 T02770138  RH  042%=      5-min Rain = 0
KCO2 140855Z 19005KT 28/14 A2995 RMK A01 T02770138  RH  042%=      5-min Rain = 0
KCO2 140856Z 19005KT 28/14 A2995 RMK A01 T02760137  RH  043%=      5-min Rain = 0
KCO2 140857Z 19005KT 28/14 A2995 RMK A01 T02750138  RH  043%=      5-min Rain = 0
KCO2 140858Z 19005KT 27/14 A2995 RMK A01 T02740137  RH  043%=      5-min Rain = 0
KCO2 140859Z 19006KT 27/14 A2995 RMK A01 T02740137  RH  043%=      5-min Rain = 0
KCO2 140900Z 19005KT 27/14 A2995 RMK A01 T02730137  RH  043%=      5-min Rain = 0
KCO2 140901Z 19005KT 27/14 A2995 RMK A01 T02720138  RH  044%=      5-min Rain = 0
KCO2 140902Z 19006KT 27/14 A2995 RMK A01 T02710137  RH  044%=      5-min Rain = 0
KCO2 140903Z 19006KT 27/14 A2995 RMK A01 T02710138  RH  044%=      5-min Rain = 0
KCO2 140904Z 19006KT 27/14 A2995 RMK A01 T02700138  RH  044%=      5-min Rain = 0
KCO2 140905Z 19006KT 27/14 A2995 RMK A01 T02700138  RH  044%=      5-min Rain = 0
KCO2 140906Z 20006KT 27/14 A2995 RMK A01 T02690137  RH  044%=      5-min Rain = 0
KCO2 140907Z 19005KT 27/14 A2995 RMK A01 T02690138  RH  044%=      5-min Rain = 0
KCO2 140908Z 19005KT 27/14 A2995 RMK A01 T02690137  RH  044%=      5-min Rain = 0
KCO2 140909Z 19005KT 27/14 A2995 RMK A01 T02690138  RH  044%=      5-min Rain = 0
KCO2 140910Z 19006KT 27/14 A2995 RMK A01 T02680137  RH  045%=      5-min Rain = 0
KCO2 140911Z 19006KT 27/14 A2995 RMK A01 T02670137  RH  045%=      5-min Rain = 0
KCO2 140912Z 19006KT 27/14 A2995 RMK A01 T02670137  RH  045%=      5-min Rain = 0
KCO2 140913Z 20006KT 27/14 A2995 RMK A01 T02670138  RH  045%=      5-min Rain = 0
KCO2 140914Z 19006KT 27/14 A2995 RMK A01 T02670138  RH  045%=      5-min Rain = 0
KCO2 140915Z 19006KT 27/14 A2995 RMK A01 T02670138  RH  045%=      5-min Rain = 0
KCO2 140916Z 19007KT 27/14 A2995 RMK A01 T02670138  RH  045%=      5-min Rain = 0
KCO2 140917Z 19006KT 27/14 A2995 RMK A01 T02670137  RH  045%=      5-min Rain = 0
KCO2 140918Z 19006KT 27/14 A2995 RMK A01 T02680138  RH  045%=      5-min Rain = 0
KCO2 140919Z 19006KT 27/14 A2995 RMK A01 T02670138  RH  045%=      5-min Rain = 0
KCO2 140920Z 20006KT 27/14 A2995 RMK A01 T02670138  RH  045%=      5-min Rain = 0
KCO2 140921Z 20006KT 27/14 A2995 RMK A01 T02660138  RH  045%=      5-min Rain = 0
KCO2 140922Z 20006KT 27/14 A2995 RMK A01 T02660138  RH  045%=      5-min Rain = 0
KCO2 140923Z 20007KT 27/14 A2995 RMK A01 T02670138  RH  045%=      5-min Rain = 0
KCO2 140924Z 20006KT 27/14 A2995 RMK A01 T02680138  RH  045%=      5-min Rain = 0
KCO2 140925Z 20007KT 27/14 A2995 RMK A01 T02680138  RH  045%=      5-min Rain = 0
KCO2 140926Z 20006KT 27/14 A2995 RMK A01 T02680138  RH  045%=      5-min Rain = 0
KCO2 140927Z 20006KT 27/14 A2995 RMK A01 T02680138  RH  045%=      5-min Rain = 0
KCO2 140928Z 20006KT 27/14 A2995 RMK A01 T02670138  RH  045%=      5-min Rain = 0
KCO2 140929Z 20006KT 27/14 A2995 RMK A01 T02670138  RH  045%=      5-min Rain = 0
KCO2 140930Z 20006KT 27/14 A2995 RMK A01 T02670138  RH  045%=      5-min Rain = 0
KCO2 140931Z 20005KT 27/14 A2995 RMK A01 T02670139  RH  045%=      5-min Rain = 0
KCO2 140932Z 20005KT 27/14 A2995 RMK A01 T02660138  RH  045%=      5-min Rain = 0
KCO2 140933Z 20005KT 27/14 A2995 RMK A01 T02660138  RH  045%=      5-min Rain = 0
KCO2 140934Z 20005KT 27/14 A2995 RMK A01 T02660138  RH  045%=      5-min Rain = 0
KCO2 140935Z 20005KT 27/14 A2995 RMK A01 T02660139  RH  045%=      5-min Rain = 0
KCO2 140936Z 20005KT 27/14 A2995 RMK A01 T02660139  RH  045%=      5-min Rain = 0
KCO2 140937Z 20005KT 27/14 A2995 RMK A01 T02660138  RH  046%=      5-min Rain = 0
KCO2 140938Z 20005KT 27/14 A2995 RMK A01 T02650139  RH  046%=      5-min Rain = 0
KCO2 140939Z 20005KT 27/14 A2995 RMK A01 T02650139  RH  046%=      5-min Rain = 0
KCO2 140940Z 20005KT 27/14 A2995 RMK A01 T02650139  RH  046%=      5-min Rain = 0
KCO2 140941Z 20005KT 27/14 A2995 RMK A01 T02650139  RH  046%=      5-min Rain = 0
KCO2 140942Z 20005KT 27/14 A2995 RMK A01 T02650139  RH  046%=      5-min Rain = 0
KCO2 140943Z 20005KT 26/14 A2995 RMK A01 T02640138  RH  046%=      5-min Rain = 0
KCO2 140944Z 20006KT 26/14 A2995 RMK A01 T02640139  RH  046%=      5-min Rain = 0
KCO2 140945Z 20006KT 26/14 A2995 RMK A01 T02640138  RH  046%=      5-min Rain = 0
KCO2 140946Z 20005KT 26/14 A2995 RMK A01 T02640138  RH  046%=      5-min Rain = 0
KCO2 140947Z 20006KT 26/14 A2995 RMK A01 T02640139  RH  046%=      5-min Rain = 0
KCO2 140948Z 20006KT 27/14 A2995 RMK A01 T02650139  RH  046%=      5-min Rain = 0
KCO2 140949Z 20006KT 27/14 A2995 RMK A01 T02650139  RH  046%=      5-min Rain = 0
KCO2 140950Z 20006KT 27/14 A2995 RMK A01 T02650139  RH  046%=      5-min Rain = 0
KCO2 140951Z 20006KT 27/14 A2995 RMK A01 T02650139  RH  046%=      5-min Rain = 0
KCO2 140952Z 20006KT 27/14 A2995 RMK A01 T02650139  RH  046%=      5-min Rain = 0
KCO2 140953Z 19006KT 27/14 A2995 RMK A01 T02650139  RH  046%=      5-min Rain = 0
KCO2 140954Z 19007KT 27/14 A2995 RMK A01 T02650139  RH  046%=      5-min Rain = 0
KCO2 140955Z 19007KT 27/14 A2995 RMK A01 T02650139  RH  046%=      5-min Rain = 0
KCO2 140956Z 19007KT 27/14 A2995 RMK A01 T02650139  RH  046%=      5-min Rain = 0
KCO2 140957Z 19006KT 27/14 A2995 RMK A01 T02650139  RH  046%=      5-min Rain = 0
KCO2 140958Z 19007KT 27/14 A2994 RMK A01 T02650139  RH  046%=      5-min Rain = 0
KCO2 140959Z 19007KT 27/14 A2994 RMK A01 T02660139  RH  046%=      5-min Rain = 0
KCO2 141000Z 19006KT 27/14 A2994 RMK A01 T02670139  RH  046%=      5-min Rain = 0
KCO2 141001Z 19006KT 27/14 A2994 RMK A01 T02670139  RH  045%=      5-min Rain = 0
KCO2 141002Z 19006KT 27/14 A2995 RMK A01 T02670139  RH  045%=      5-min Rain = 0
KCO2 141003Z 19005KT 27/14 A2995 RMK A01 T02670139  RH  045%=      5-min Rain = 0
KCO2 141004Z 19006KT 27/14 A2995 RMK A01 T02670139  RH  045%=      5-min Rain = 0
KCO2 141005Z 19005KT 27/14 A2995 RMK A01 T02670140  RH  045%=      5-min Rain = 0
KCO2 141006Z 19005KT 27/14 A2995 RMK A01 T02660139  RH  046%=      5-min Rain = 0
KCO2 141007Z 19005KT 27/14 A2995 RMK A01 T02650139  RH  046%=      5-min Rain = 0
KCO2 141008Z 19005KT 26/14 A2995 RMK A01 T02640139  RH  046%=      5-min Rain = 0
KCO2 141009Z 19006KT 26/14 A2995 RMK A01 T02630139  RH  046%=      5-min Rain = 0
KCO2 141010Z 19006KT 26/14 A2995 RMK A01 T02620139  RH  047%=      5-min Rain = 0
KCO2 141011Z 19006KT 26/14 A2995 RMK A01 T02620139  RH  047%=      5-min Rain = 0
KCO2 141012Z 19006KT 26/14 A2995 RMK A01 T02610139  RH  047%=      5-min Rain = 0
KCO2 141013Z 19006KT 26/14 A2995 RMK A01 T02610139  RH  047%=      5-min Rain = 0
KCO2 141014Z 19006KT 26/14 A2995 RMK A01 T02600139  RH  047%=      5-min Rain = 0
KCO2 141015Z 20006KT 26/14 A2995 RMK A01 T02600139  RH  047%=      5-min Rain = 0
KCO2 141016Z 19006KT 26/14 A2995 RMK A01 T02600139  RH  047%=      5-min Rain = 0
KCO2 141017Z 19006KT 26/14 A2995 RMK A01 T02600139  RH  047%=      5-min Rain = 0
KCO2 141018Z 19006KT 26/14 A2995 RMK A01 T02600139  RH  047%=      5-min Rain = 0
KCO2 141019Z 19006KT 26/14 A2995 RMK A01 T02590139  RH  047%=      5-min Rain = 0
KCO2 141020Z 19006KT 26/14 A2995 RMK A01 T02580139  RH  048%=      5-min Rain = 0
KCO2 141021Z 19006KT 26/14 A2995 RMK A01 T02570139  RH  048%=      5-min Rain = 0
KCO2 141022Z 19006KT 26/14 A2995 RMK A01 T02570139  RH  048%=      5-min Rain = 0
KCO2 141023Z 19006KT 26/14 A2995 RMK A01 T02580139  RH  048%=      5-min Rain = 0
KCO2 141024Z 19006KT 26/14 A2995 RMK A01 T02580139  RH  048%=      5-min Rain = 0
KCO2 141025Z 19006KT 26/14 A2995 RMK A01 T02580139  RH  048%=      5-min Rain = 0
KCO2 141026Z 19006KT 26/14 A2995 RMK A01 T02580139  RH  048%=      5-min Rain = 0
KCO2 141027Z 19006KT 26/14 A2995 RMK A01 T02580139  RH  048%=      5-min Rain = 0
KCO2 141028Z 19006KT 26/14 A2995 RMK A01 T02580139  RH  048%=      5-min Rain = 0
KCO2 141029Z 18006KT 26/14 A2995 RMK A01 T02580138  RH  048%=      5-min Rain = 0
KCO2 141030Z 18006KT 26/14 A2995 RMK A01 T02580139  RH  048%=      5-min Rain = 0
KCO2 141031Z 18007KT 26/14 A2995 RMK A01 T02570139  RH  048%=      5-min Rain = 0
KCO2 141032Z 18007KT 26/14 A2995 RMK A01 T02550138  RH  048%=      5-min Rain = 0
KCO2 141033Z 18006KT 26/14 A2995 RMK A01 T02550139  RH  049%=      5-min Rain = 0
KCO2 141034Z 18007KT 25/14 A2995 RMK A01 T02540139  RH  049%=      5-min Rain = 0
KCO2 141035Z 18006KT 25/14 A2995 RMK A01 T02540139  RH  049%=      5-min Rain = 0
KCO2 141036Z 18006KT 25/14 A2995 RMK A01 T02530139  RH  049%=      5-min Rain = 0
KCO2 141037Z 18006KT 25/14 A2995 RMK A01 T02530139  RH  049%=      5-min Rain = 0
KCO2 141038Z 18007KT 25/14 A2995 RMK A01 T02530139  RH  049%=      5-min Rain = 0
KCO2 141039Z 18007KT 25/14 A2995 RMK A01 T02520139  RH  049%=      5-min Rain = 0
KCO2 141040Z 18006KT 25/14 A2995 RMK A01 T02520139  RH  049%=      5-min Rain = 0
KCO2 141041Z 17006KT 25/14 A2995 RMK A01 T02520139  RH  050%=      5-min Rain = 0
KCO2 141042Z 18006KT 25/14 A2995 RMK A01 T02510139  RH  050%=      5-min Rain = 0
KCO2 141043Z 17006KT 25/14 A2995 RMK A01 T02500139  RH  050%=      5-min Rain = 0
KCO2 141044Z 17006KT 25/14 A2995 RMK A01 T02490139  RH  051%=      5-min Rain = 0
KCO2 141045Z 17006KT 25/14 A2995 RMK A01 T02480140  RH  051%=      5-min Rain = 0
KCO2 141046Z 18006KT 25/14 A2995 RMK A01 T02470140  RH  051%=      5-min Rain = 0
KCO2 141047Z 18006KT 25/14 A2995 RMK A01 T02460140  RH  052%=      5-min Rain = 0
KCO2 141048Z 18006KT 25/14 A2995 RMK A01 T02460140  RH  052%=      5-min Rain = 0
KCO2 141049Z 17006KT 25/14 A2995 RMK A01 T02450140  RH  052%=      5-min Rain = 0
KCO2 141050Z 17005KT 25/14 A2995 RMK A01 T02450141  RH  052%=      5-min Rain = 0
KCO2 141051Z 17005KT 24/14 A2995 RMK A01 T02430141  RH  053%=      5-min Rain = 0
KCO2 141052Z 17005KT 24/14 A2995 RMK A01 T02420141  RH  053%=      5-min Rain = 0
KCO2 141053Z 17005KT 24/14 A2995 RMK A01 T02420141  RH  053%=      5-min Rain = 0
KCO2 141054Z 17005KT 24/14 A2995 RMK A01 T02410141  RH  053%=      5-min Rain = 0
KCO2 141055Z 17005KT 24/14 A2995 RMK A01 T02410141  RH  054%=      5-min Rain = 0
KCO2 141056Z 17005KT 24/14 A2995 RMK A01 T02410141  RH  054%=      5-min Rain = 0
KCO2 141057Z 17005KT 24/14 A2995 RMK A01 T02410141  RH  054%=      5-min Rain = 0
KCO2 141058Z 17005KT 24/14 A2995 RMK A01 T02410141  RH  054%=      5-min Rain = 0
KCO2 141059Z 17005KT 24/14 A2995 RMK A01 T02410141  RH  054%=      5-min Rain = 0
KCO2 141100Z 17005KT 24/14 A2995 RMK A01 T02400141  RH  054%=      5-min Rain = 0
KCO2 141101Z 17005KT 24/14 A2995 RMK A01 T02400141  RH  054%=      5-min Rain = 0
KCO2 141102Z 17005KT 24/14 A2995 RMK A01 T02400141  RH  054%=      5-min Rain = 0
KCO2 141103Z 17005KT 24/14 A2995 RMK A01 T02400141  RH  054%=      5-min Rain = 0
KCO2 141104Z 17005KT 24/14 A2995 RMK A01 T02400142  RH  054%=      5-min Rain = 0
KCO2 141105Z 17005KT 24/14 A2995 RMK A01 T02390141  RH  054%=      5-min Rain = 0
KCO2 141106Z 17005KT 24/14 A2995 RMK A01 T02380142  RH  055%=      5-min Rain = 0
KCO2 141107Z 17005KT 24/14 A2995 RMK A01 T02380142  RH  055%=      5-min Rain = 0
KCO2 141108Z 17005KT 24/14 A2995 RMK A01 T02380142  RH  055%=      5-min Rain = 0
KCO2 141109Z 17005KT 24/14 A2995 RMK A01 T02380142  RH  055%=      5-min Rain = 0
KCO2 141110Z 17005KT 24/14 A2995 RMK A01 T02380142  RH  055%=      5-min Rain = 0
KCO2 141111Z 17005KT 24/14 A2996 RMK A01 T02380142  RH  055%=      5-min Rain = 0
KCO2 141112Z 17005KT 24/14 A2996 RMK A01 T02380142  RH  055%=      5-min Rain = 0
KCO2 141113Z 17005KT 24/14 A2996 RMK A01 T02380142  RH  055%=      5-min Rain = 0
KCO2 141114Z 17005KT 24/14 A2996 RMK A01 T02380142  RH  055%=      5-min Rain = 0
KCO2 141115Z 17005KT 24/14 A2996 RMK A01 T02370142  RH  055%=      5-min Rain = 0
KCO2 141116Z 17006KT 24/14 A2996 RMK A01 T02370142  RH  055%=      5-min Rain = 0
KCO2 141117Z 17006KT 24/14 A2996 RMK A01 T02360141  RH  055%=      5-min Rain = 0
KCO2 141118Z 18006KT 24/14 A2996 RMK A01 T02360141  RH  055%=      5-min Rain = 0
KCO2 141119Z 18006KT 24/14 A2996 RMK A01 T02360141  RH  055%=      5-min Rain = 0
KCO2 141120Z 18006KT 24/14 A2996 RMK A01 T02360141  RH  055%=      5-min Rain = 0
KCO2 141121Z 18006KT 24/14 A2995 RMK A01 T02360141  RH  055%=      5-min Rain = 0
KCO2 141122Z 18006KT 24/14 A2995 RMK A01 T02360141  RH  055%=      5-min Rain = 0
KCO2 141123Z 18006KT 24/14 A2995 RMK A01 T02360142  RH  055%=      5-min Rain = 0
KCO2 141124Z 18006KT 24/14 A2995 RMK A01 T02360141  RH  055%=      5-min Rain = 0
KCO2 141125Z 18006KT 24/14 A2995 RMK A01 T02360141  RH  055%=      5-min Rain = 0
KCO2 141126Z 18006KT 24/14 A2995 RMK A01 T02360141  RH  055%=      5-min Rain = 0
KCO2 141127Z 18006KT 24/14 A2995 RMK A01 T02360142  RH  056%=      5-min Rain = 0
KCO2 141128Z 18006KT 24/14 A2996 RMK A01 T02350141  RH  055%=      5-min Rain = 0
KCO2 141129Z 18006KT 24/14 A2996 RMK A01 T02350141  RH  055%=      5-min Rain = 0
KCO2 141130Z 18006KT 24/14 A2996 RMK A01 T02360141  RH  055%=      5-min Rain = 0
KCO2 141131Z 18006KT 24/14 A2996 RMK A01 T02360141  RH  055%=      5-min Rain = 0
KCO2 141132Z 18006KT 24/14 A2996 RMK A01 T02350141  RH  055%=      5-min Rain = 0
KCO2 141133Z 18006KT 24/14 A2996 RMK A01 T02350141  RH  055%=      5-min Rain = 0
KCO2 141134Z 18006KT 24/14 A2996 RMK A01 T02350141  RH  055%=      5-min Rain = 0
KCO2 141135Z 18006KT 24/14 A2996 RMK A01 T02360141  RH  055%=      5-min Rain = 0
KCO2 141136Z 18006KT 24/14 A2996 RMK A01 T02350141  RH  055%=      5-min Rain = 0
KCO2 141137Z 18006KT 24/14 A2996 RMK A01 T02350141  RH  055%=      5-min Rain = 0
KCO2 141138Z 18006KT 24/14 A2996 RMK A01 T02360142  RH  055%=      5-min Rain = 0
KCO2 141139Z 18006KT 24/14 A2996 RMK A01 T02360141  RH  055%=      5-min Rain = 0
KCO2 141140Z 18006KT 24/14 A2996 RMK A01 T02360141  RH  055%=      5-min Rain = 0
KCO2 141141Z 18006KT 24/14 A2996 RMK A01 T02360141  RH  055%=      5-min Rain = 0
KCO2 141142Z 18006KT 24/14 A2996 RMK A01 T02360141  RH  055%=      5-min Rain = 0
KCO2 141143Z 18006KT 24/14 A2996 RMK A01 T02360142  RH  055%=      5-min Rain = 0
KCO2 141144Z 18006KT 24/14 A2996 RMK A01 T02370142  RH  055%=      5-min Rain = 0
KCO2 141145Z 18006KT 24/14 A2996 RMK A01 T02360142  RH  055%=      5-min Rain = 0
KCO2 141146Z 18006KT 24/14 A2996 RMK A01 T02360141  RH  055%=      5-min Rain = 0
KCO2 141147Z 18006KT 24/14 A2996 RMK A01 T02360141  RH  055%=      5-min Rain = 0
KCO2 141148Z 18006KT 24/14 A2996 RMK A01 T02350141  RH  055%=      5-min Rain = 0
KCO2 141149Z 18006KT 24/14 A2996 RMK A01 T02350141  RH  055%=      5-min Rain = 0
KCO2 141150Z 18006KT 24/14 A2996 RMK A01 T02350141  RH  056%=      5-min Rain = 0
KCO2 141151Z 18005KT 24/14 A2996 RMK A01 T02350141  RH  056%=      5-min Rain = 0
KCO2 141152Z 18005KT 23/14 A2996 RMK A01 T02340141  RH  056%=      5-min Rain = 0
KCO2 141153Z 18005KT 23/14 A2996 RMK A01 T02340142  RH  056%=      5-min Rain = 0
KCO2 141154Z 18005KT 23/14 A2996 RMK A01 T02340142  RH  056%=      5-min Rain = 0
KCO2 141155Z 17005KT 23/14 A2996 RMK A01 T02330141  RH  056%=      5-min Rain = 0
KCO2 141156Z 17005KT 23/14 A2996 RMK A01 T02330142  RH  057%=      5-min Rain = 0
KCO2 141157Z 17005KT 23/14 A2996 RMK A01 T02320142  RH  057%=      5-min Rain = 0
KCO2 141158Z 17005KT 23/14 A2996 RMK A01 T02320142  RH  057%=      5-min Rain = 0
KCO2 141159Z 17005KT 23/14 A2996 RMK A01 T02310142  RH  057%=      5-min Rain = 0
KCO2 141200Z 17005KT 23/14 A2996 RMK A01 T02310142  RH  057%=      5-min Rain = 0
KCO2 141201Z 17004KT 23/14 A2997 RMK A01 T02310142  RH  057%=      5-min Rain = 0
KCO2 141202Z 18004KT 23/14 A2997 RMK A01 T02310142  RH  057%=      5-min Rain = 0
KCO2 141203Z 18004KT 23/14 A2997 RMK A01 T02320142  RH  057%=      5-min Rain = 0
KCO2 141204Z 18004KT 23/14 A2997 RMK A01 T02330142  RH  057%=      5-min Rain = 0
KCO2 141205Z 18004KT 23/14 A2997 RMK A01 T02340142  RH  056%=      5-min Rain = 0
KCO2 141206Z 18004KT 24/14 A2997 RMK A01 T02350142  RH  056%=      5-min Rain = 0
KCO2 141207Z 18004KT 24/14 A2997 RMK A01 T02360142  RH  056%=      5-min Rain = 0
KCO2 141208Z 18004KT 24/14 A2997 RMK A01 T02370142  RH  055%=      5-min Rain = 0
KCO2 141209Z 17004KT 24/14 A2997 RMK A01 T02370142  RH  055%=      5-min Rain = 0
KCO2 141210Z 17004KT 24/14 A2997 RMK A01 T02380142  RH  055%=      5-min Rain = 0
KCO2 141211Z 16003KT 24/14 A2997 RMK A01 T02380142  RH  055%=      5-min Rain = 0
KCO2 141212Z 17004KT 24/14 A2997 RMK A01 T02370142  RH  055%=      5-min Rain = 0
KCO2 141213Z 17004KT 24/14 A2997 RMK A01 T02360142  RH  055%=      5-min Rain = 0
KCO2 141214Z 17004KT 24/14 A2997 RMK A01 T02360142  RH  055%=      5-min Rain = 0
KCO2 141215Z 17004KT 24/14 A2997 RMK A01 T02350141  RH  056%=      5-min Rain = 0
KCO2 141216Z 17004KT 23/14 A2997 RMK A01 T02340141  RH  056%=      5-min Rain = 0
KCO2 141217Z 16004KT 23/14 A2997 RMK A01 T02340141  RH  056%=      5-min Rain = 0
KCO2 141218Z 16004KT 23/14 A2997 RMK A01 T02340141  RH  056%=      5-min Rain = 0
KCO2 141219Z 16004KT 23/14 A2997 RMK A01 T02340141  RH  056%=      5-min Rain = 0
KCO2 141220Z 16004KT 23/14 A2997 RMK A01 T02330141  RH  056%=      5-min Rain = 0
KCO2 141221Z 15004KT 23/14 A2997 RMK A01 T02330141  RH  056%=      5-min Rain = 0
KCO2 141222Z 15004KT 23/14 A2997 RMK A01 T02330141  RH  056%=      5-min Rain = 0
KCO2 141223Z 15004KT 23/14 A2997 RMK A01 T02340141  RH  056%=      5-min Rain = 0
KCO2 141224Z 15004KT 23/14 A2997 RMK A01 T02340141  RH  056%=      5-min Rain = 0
KCO2 141225Z 16004KT 24/14 A2998 RMK A01 T02350142  RH  056%=      5-min Rain = 0
KCO2 141226Z 16004KT 24/14 A2998 RMK A01 T02350142  RH  056%=      5-min Rain = 0
KCO2 141227Z 16004KT 24/14 A2998 RMK A01 T02350142  RH  056%=      5-min Rain = 0
KCO2 141228Z 17004KT 24/14 A2998 RMK A01 T02350142  RH  056%=      5-min Rain = 0
KCO2 141229Z 17004KT 24/14 A2998 RMK A01 T02350142  RH  056%=      5-min Rain = 0
KCO2 141230Z 17004KT 24/14 A2998 RMK A01 T02350142  RH  056%=      5-min Rain = 0
KCO2 141231Z 17004KT 24/14 A2998 RMK A01 T02360142  RH  055%=      5-min Rain = 0
KCO2 141232Z 18004KT 24/14 A2998 RMK A01 T02370142  RH  055%=      5-min Rain = 0
KCO2 141233Z 17004KT 24/14 A2998 RMK A01 T02370142  RH  055%=      5-min Rain = 0
KCO2 141234Z 17004KT 24/14 A2998 RMK A01 T02390142  RH  055%=      5-min Rain = 0
KCO2 141235Z 17004KT 24/14 A2998 RMK A01 T02400142  RH  054%=      5-min Rain = 0
KCO2 141236Z 17004KT 24/14 A2998 RMK A01 T02400143  RH  054%=      5-min Rain = 0
KCO2 141237Z 17004KT 24/14 A2998 RMK A01 T02410142  RH  054%=      5-min Rain = 0
KCO2 141238Z 17004KT 24/14 A2998 RMK A01 T02410143  RH  054%=      5-min Rain = 0
KCO2 141239Z 17003KT 24/14 A2998 RMK A01 T02420143  RH  054%=      5-min Rain = 0
KCO2 141240Z 17003KT 24/14 A2998 RMK A01 T02420143  RH  054%=      5-min Rain = 0
KCO2 141241Z 17003KT 24/14 A2998 RMK A01 T02430144  RH  054%=      5-min Rain = 0
KCO2 141242Z 17003KT 24/14 A2999 RMK A01 T02440144  RH  054%=      5-min Rain = 0
KCO2 141243Z 17003KT 25/14 A2999 RMK A01 T02450144  RH  053%=      5-min Rain = 0
KCO2 141244Z 17004KT 25/14 A2999 RMK A01 T02450144  RH  053%=      5-min Rain = 0
KCO2 141245Z 16003KT 25/14 A2999 RMK A01 T02460144  RH  053%=      5-min Rain = 0
KCO2 141246Z 17003KT 25/15 A2999 RMK A01 T02470145  RH  053%=      5-min Rain = 0
KCO2 141247Z 17004KT 25/15 A2999 RMK A01 T02470145  RH  053%=      5-min Rain = 0
KCO2 141248Z 16004KT 25/15 A2999 RMK A01 T02480145  RH  053%=      5-min Rain = 0
KCO2 141249Z 16003KT 25/15 A2999 RMK A01 T02480146  RH  053%=      5-min Rain = 0
KCO2 141250Z 16004KT 25/15 A2999 RMK A01 T02480147  RH  053%=      5-min Rain = 0
KCO2 141251Z 16004KT 25/15 A2999 RMK A01 T02480148  RH  054%=      5-min Rain = 0
KCO2 141252Z 17004KT 25/15 A2999 RMK A01 T02480147  RH  054%=      5-min Rain = 0
KCO2 141253Z 17004KT 25/15 A2999 RMK A01 T02480147  RH  053%=      5-min Rain = 0
KCO2 141254Z 18004KT 25/15 A2999 RMK A01 T02490148  RH  053%=      5-min Rain = 0
KCO2 141255Z 18004KT 25/15 A2999 RMK A01 T02490148  RH  053%=      5-min Rain = 0
KCO2 141256Z 19004KT 25/15 A2999 RMK A01 T02500148  RH  053%=      5-min Rain = 0
KCO2 141257Z 19004KT 25/15 A2999 RMK A01 T02510147  RH  052%=      5-min Rain = 0
KCO2 141258Z 19004KT 25/15 A2999 RMK A01 T02530147  RH  052%=      5-min Rain = 0
KCO2 141259Z 19004KT 26/15 A2999 RMK A01 T02550146  RH  051%=      5-min Rain = 0
KCO2 141300Z 19004KT 26/15 A2999 RMK A01 T02560146  RH  051%=      5-min Rain = 0
KCO2 141301Z 19004KT 26/15 A2999 RMK A01 T02570147  RH  050%=      5-min Rain = 0
KCO2 141302Z 19004KT 26/15 A2999 RMK A01 T02580147  RH  050%=      5-min Rain = 0
KCO2 141303Z 19004KT 26/15 A2999 RMK A01 T02600148  RH  050%=      5-min Rain = 0
KCO2 141304Z 19004KT 26/15 A2999 RMK A01 T02600147  RH  050%=      5-min Rain = 0
KCO2 141305Z 20004KT 26/15 A2999 RMK A01 T02610147  RH  049%=      5-min Rain = 0
KCO2 141306Z 20004KT 26/15 A30 RMK A01 T02620147  RH  049%=      5-min Rain = 0
KCO2 141307Z 20004KT 26/15 A30 RMK A01 T02640147  RH  049%=      5-min Rain = 0
KCO2 141308Z 20004KT 27/15 A30 RMK A01 T02650147  RH  048%=      5-min Rain = 0
KCO2 141309Z 20004KT 27/15 A30 RMK A01 T02660147  RH  048%=      5-min Rain = 0
KCO2 141310Z 19004KT 27/15 A30 RMK A01 T02660147  RH  048%=      5-min Rain = 0
KCO2 141311Z 19005KT 27/15 A30 RMK A01 T02680147  RH  047%=      5-min Rain = 0
KCO2 141312Z 18005KT 27/15 A30 RMK A01 T02680146  RH  047%=      5-min Rain = 0
KCO2 141313Z 18004KT 27/15 A30 RMK A01 T02690146  RH  047%=      5-min Rain = 0
KCO2 141314Z 18005KT 27/15 A2999 RMK A01 T02700148  RH  047%=      5-min Rain = 0
KCO2 141315Z 18005KT 27/15 A2999 RMK A01 T02710148  RH  047%=      5-min Rain = 0
KCO2 141316Z 19005KT 27/15 A2999 RMK A01 T02710147  RH  047%=      5-min Rain = 0
KCO2 141317Z 19005KT 27/15 A2999 RMK A01 T02710147  RH  046%=      5-min Rain = 0
KCO2 141318Z 19005KT 27/15 A2999 RMK A01 T02720147  RH  046%=      5-min Rain = 0
KCO2 141319Z 19005KT 27/15 A2999 RMK A01 T02730147  RH  046%=      5-min Rain = 0
KCO2 141320Z 19007KT 27/15 A2999 RMK A01 T02730147  RH  046%=      5-min Rain = 0
KCO2 141321Z 20005KT 27/15 A2999 RMK A01 T02740146  RH  046%=      5-min Rain = 0
KCO2 141322Z 19006KT 27/15 A2999 RMK A01 T02740147  RH  046%=      5-min Rain = 0
KCO2 141323Z 19006KT 28/15 A2999 RMK A01 T02750147  RH  045%=      5-min Rain = 0
KCO2 141324Z 19006KT 28/15 A2999 RMK A01 T02760147  RH  045%=      5-min Rain = 0
KCO2 141325Z 19006KT 28/15 A30 RMK A01 T02760147  RH  045%=      5-min Rain = 0
KCO2 141326Z 19006KT 28/15 A30 RMK A01 T02770147  RH  045%=      5-min Rain = 0
KCO2 141327Z 19007KT 28/15 A30 RMK A01 T02780147  RH  045%=      5-min Rain = 0
KCO2 141328Z 18006KT 28/15 A30 RMK A01 T02780147  RH  045%=      5-min Rain = 0
KCO2 141329Z 18006KT 28/15 A30 RMK A01 T02780148  RH  045%=      5-min Rain = 0
KCO2 141330Z 19006KT 28/15 A30 RMK A01 T02800148  RH  045%=      5-min Rain = 0
KCO2 141331Z 18005KT 28/15 A30 RMK A01 T02800148  RH  044%=      5-min Rain = 0
KCO2 141332Z 18007KT 28/15 A30 RMK A01 T02810148  RH  044%=      5-min Rain = 0
KCO2 141333Z 18007KT 28/15 A30 RMK A01 T02810147  RH  044%=      5-min Rain = 0
KCO2 141334Z 18007KT 28/15 A30 RMK A01 T02820147  RH  044%=      5-min Rain = 0
KCO2 141335Z 18008KT 28/15 A30 RMK A01 T02810147  RH  044%=      5-min Rain = 0
KCO2 141336Z 19007KT 28/15 A30 RMK A01 T02810146  RH  044%=      5-min Rain = 0
KCO2 141337Z 19007KT 28/15 A30 RMK A01 T02820147  RH  044%=      5-min Rain = 0
KCO2 141338Z 20007KT 28/15 A30 RMK A01 T02820146  RH  043%=      5-min Rain = 0
KCO2 141339Z 19006KT 28/15 A30 RMK A01 T02830147  RH  043%=      5-min Rain = 0
KCO2 141340Z 19007KT 28/15 A30 RMK A01 T02830148  RH  044%=      5-min Rain = 0
KCO2 141341Z 19007KT 29/15 A30 RMK A01 T02850147  RH  043%=      5-min Rain = 0
KCO2 141342Z 20008KT 29/15 A30 RMK A01 T02850147  RH  043%=      5-min Rain = 0
KCO2 141343Z 20007KT 29/15 A30 RMK A01 T02850146  RH  043%=      5-min Rain = 0
KCO2 141344Z 20005KT 29/15 A30 RMK A01 T02850148  RH  043%=      5-min Rain = 0
KCO2 141345Z 21007KT 29/15 A30 RMK A01 T02860148  RH  043%=      5-min Rain = 0
KCO2 141346Z 20009KT 29/15 A30 RMK A01 T02870147  RH  043%=      5-min Rain = 0
KCO2 141347Z 20010KT 29/15 A30 RMK A01 T02870147  RH  042%=      5-min Rain = 0
KCO2 141348Z 20009KT 29/15 A30 RMK A01 T02870147  RH  042%=      5-min Rain = 0
KCO2 141349Z 20008KT 29/15 A30 RMK A01 T02870148  RH  043%=      5-min Rain = 0
KCO2 141350Z 20008KT 29/15 A30 RMK A01 T02870147  RH  042%=      5-min Rain = 0
KCO2 141351Z 21007KT 29/15 A30 RMK A01 T02880148  RH  043%=      5-min Rain = 0
KCO2 141352Z 21008KT 29/15 A30 RMK A01 T02880148  RH  042%=      5-min Rain = 0
KCO2 141353Z 21010KT 29/15 A30 RMK A01 T02880147  RH  042%=      5-min Rain = 0
KCO2 141354Z 20009KT 29/15 A30 RMK A01 T02890147  RH  042%=      5-min Rain = 0
KCO2 141355Z 21008KT 29/15 A30 RMK A01 T02880147  RH  042%=      5-min Rain = 0
KCO2 141356Z 22006KT 29/15 A30 RMK A01 T02880148  RH  042%=      5-min Rain = 0
KCO2 141357Z 22007KT 29/15 A30 RMK A01 T02890148  RH  042%=      5-min Rain = 0
KCO2 141358Z 22007KT 29/15 A30 RMK A01 T02900148  RH  042%=      5-min Rain = 0
KCO2 141359Z 21006KT 29/15 A30 RMK A01 T02900147  RH  042%=      5-min Rain = 0
KCO2 141400Z 22007KT 29/15 A30 RMK A01 T02900148  RH  042%=      5-min Rain = 0
KCO2 141401Z 23007KT 29/15 A3001 RMK A01 T02900148  RH  042%=      5-min Rain = 0
KCO2 141402Z 22008KT 29/15 A3001 RMK A01 T02910149  RH  042%=      5-min Rain = 0
KCO2 141403Z 23006KT 29/15 A3001 RMK A01 T02920149  RH  042%=      5-min Rain = 0
KCO2 141404Z 23007KT 29/15 A3001 RMK A01 T02920149  RH  042%=      5-min Rain = 0
KCO2 141405Z 21008KT 29/15 A3001 RMK A01 T02920150  RH  042%=      5-min Rain = 0
KCO2 141406Z 22008KT 29/15 A3001 RMK A01 T02930148  RH  041%=      5-min Rain = 0
KCO2 141407Z 23007KT 29/15 A30 RMK A01 T02930149  RH  042%=      5-min Rain = 0
KCO2 141408Z 23006KT 29/15 A30 RMK A01 T02930150  RH  042%=      5-min Rain = 0
KCO2 141409Z 22007KT 29/15 A30 RMK A01 T02940149  RH  041%=      5-min Rain = 0
KCO2 141410Z 23006KT 29/15 A3001 RMK A01 T02940150  RH  041%=      5-min Rain = 0
KCO2 141411Z 22006KT 30/15 A30 RMK A01 T02950151  RH  042%=      5-min Rain = 0
KCO2 141412Z 22009KT 30/15 A3001 RMK A01 T02970151  RH  041%=      5-min Rain = 0
KCO2 141413Z 21009KT 30/15 A30 RMK A01 T02970150  RH  041%=      5-min Rain = 0
KCO2 141414Z 22011KT 30/15 A30 RMK A01 T02970150  RH  041%=      5-min Rain = 0
KCO2 141415Z 21009KT 30/15 A30 RMK A01 T02970150  RH  041%=      5-min Rain = 0
KCO2 141416Z 23008KT 30/15 A30 RMK A01 T02970150  RH  041%=      5-min Rain = 0
KCO2 141417Z 23009KT 30/15 A3001 RMK A01 T02960150  RH  041%=      5-min Rain = 0
KCO2 141418Z 23008KT 30/15 A30 RMK A01 T02950149  RH  041%=      5-min Rain = 0
KCO2 141419Z 22009KT 30/15 A3001 RMK A01 T02960151  RH  041%=      5-min Rain = 0
KCO2 141420Z 22010KT 30/15 A3001 RMK A01 T02970150  RH  041%=      5-min Rain = 0
KCO2 141421Z 21008KT 30/15 A3001 RMK A01 T02980151  RH  041%=      5-min Rain = 0
KCO2 141422Z 21010KT 30/15 A30 RMK A01 T02990151  RH  041%=      5-min Rain = 0
KCO2 141423Z 21011KT 30/15 A30 RMK A01 T02990150  RH  040%=      5-min Rain = 0
KCO2 141424Z 22011KT 30/15 A3001 RMK A01 T02980151  RH  041%=      5-min Rain = 0
KCO2 141425Z 21010KT 30/15 A30 RMK A01 T02970150  RH  041%=      5-min Rain = 0
KCO2 141426Z 22009KT 30/15 A3001 RMK A01 T02980151  RH  041%=      5-min Rain = 0
KCO2 141427Z 22009KT 30/15 A3001 RMK A01 T02990151  RH  041%=      5-min Rain = 0
KCO2 141428Z 22009KT 30/15 A3001 RMK A01 T02990151  RH  041%=      5-min Rain = 0
KCO2 141429Z 21007KT 30/15 A3001 RMK A01 T03000151  RH  041%=      5-min Rain = 0
KCO2 141430Z 21010KT 30/15 A3001 RMK A01 T03010152  RH  040%=      5-min Rain = 0
KCO2 141431Z 20009KT 30/15 A3001 RMK A01 T03020151  RH  040%=      5-min Rain = 0
KCO2 141432Z 20009KT 30/15 A3001 RMK A01 T03020152  RH  040%=      5-min Rain = 0
KCO2 141433Z 21011KT 30/15 A3001 RMK A01 T03020152  RH  040%=      5-min Rain = 0
KCO2 141434Z 22009KT 30/15 A3001 RMK A01 T03020152  RH  040%=      5-min Rain = 0
KCO2 141435Z 21008KT 30/15 A3001 RMK A01 T03030152  RH  040%=      5-min Rain = 0
KCO2 141436Z 21012KT 30/15 A3001 RMK A01 T03030153  RH  040%=      5-min Rain = 0
KCO2 141437Z 22012KT 31/15 A3001 RMK A01 T03050153  RH  040%=      5-min Rain = 0
KCO2 141438Z 22009KT 31/15 A3001 RMK A01 T03050153  RH  040%=      5-min Rain = 0
KCO2 141439Z 23011KT 30/15 A3001 RMK A01 T03040153  RH  040%=      5-min Rain = 0
KCO2 141440Z 21008KT 31/15 A3001 RMK A01 T03050153  RH  040%=      5-min Rain = 0
KCO2 141441Z 21009KT 31/15 A3001 RMK A01 T03060154  RH  040%=      5-min Rain = 0
KCO2 141442Z 21007KT 31/16 A3001 RMK A01 T03080156  RH  040%=      5-min Rain = 0
KCO2 141443Z 23011KT 31/16 A3001 RMK A01 T03110156  RH  039%=      5-min Rain = 0
KCO2 141444Z 23013KT 31/16 A3001 RMK A01 T03120155  RH  039%=      5-min Rain = 0
KCO2 141445Z 22012KT 31/15 A3001 RMK A01 T03100154  RH  039%=      5-min Rain = 0
KCO2 141446Z 23009KT 31/16 A3001 RMK A01 T03100155  RH  039%=      5-min Rain = 0
KCO2 141447Z 23009G15KT 31/16 A3001 RMK A01 T03110156  RH  039%=      5-min Rain = 0
KCO2 141448Z 22013KT 31/16 A3001 RMK A01 T03140156  RH  038%=      5-min Rain = 0
KCO2 141449Z 24011KT 31/16 A3001 RMK A01 T03140155  RH  038%=      5-min Rain = 0
KCO2 141450Z 25015KT 31/16 A30 RMK A01 T03130155  RH  038%=      5-min Rain = 0
KCO2 141451Z 23015KT 31/16 A3001 RMK A01 T03120155  RH  039%=      5-min Rain = 0
KCO2 141452Z 24012KT 31/16 A30 RMK A01 T03120155  RH  039%=      5-min Rain = 0
KCO2 141453Z 23013KT 31/16 A30 RMK A01 T03120155  RH  039%=      5-min Rain = 0
KCO2 141454Z 23016KT 31/16 A30 RMK A01 T03120155  RH  039%=      5-min Rain = 0
KCO2 141455Z 24013KT 31/15 A30 RMK A01 T03120154  RH  039%=      5-min Rain = 0
KCO2 141456Z 23011KT 31/16 A30 RMK A01 T03130156  RH  039%=      5-min Rain = 0
KCO2 141457Z 23015KT 32/16 A30 RMK A01 T03160156  RH  038%=      5-min Rain = 0
KCO2 141458Z 22016KT 32/16 A30 RMK A01 T03160155  RH  038%=      5-min Rain = 0
KCO2 141459Z 22014KT 31/16 A30 RMK A01 T03140155  RH  038%=      5-min Rain = 0
KCO2 141500Z 22014KT 31/16 A30 RMK A01 T03140155  RH  038%=      5-min Rain = 0
KCO2 141501Z 22013KT 31/16 A30 RMK A01 T03140155  RH  038%=      5-min Rain = 0
KCO2 141502Z 22008KT 32/16 A30 RMK A01 T03150156  RH  038%=      5-min Rain = 0
KCO2 141503Z 22011KT 32/16 A30 RMK A01 T03190157  RH  038%=      5-min Rain = 0
KCO2 141504Z 22013KT 32/16 A30 RMK A01 T03210156  RH  037%=      5-min Rain = 0
KCO2 141505Z 21011KT 32/16 A30 RMK A01 T03200155  RH  037%=      5-min Rain = 0
KCO2 141506Z 22011KT 32/16 A30 RMK A01 T03190156  RH  037%=      5-min Rain = 0
KCO2 141507Z 22011KT 32/16 A30 RMK A01 T03190156  RH  037%=      5-min Rain = 0
KCO2 141508Z 23011KT 32/16 A30 RMK A01 T03210156  RH  037%=      5-min Rain = 0
KCO2 141509Z 23014KT 32/16 A30 RMK A01 T03220155  RH  037%=      5-min Rain = 0
KCO2 141510Z 23013KT 32/15 A30 RMK A01 T03210154  RH  037%=      5-min Rain = 0
KCO2 141511Z 23012KT 32/16 A30 RMK A01 T03210155  RH  037%=      5-min Rain = 0
KCO2 141512Z 23012KT 32/16 A30 RMK A01 T03210155  RH  037%=      5-min Rain = 0
KCO2 141513Z 22010KT 32/16 A30 RMK A01 T03220156  RH  037%=      5-min Rain = 0
KCO2 141514Z 21012KT 33/16 A30 RMK A01 T03250156  RH  036%=      5-min Rain = 0
KCO2 141515Z 21010KT 33/16 A30 RMK A01 T03250156  RH  036%=      5-min Rain = 0
KCO2 141516Z 24012KT 33/16 A30 RMK A01 T03270157  RH  036%=      5-min Rain = 0
KCO2 141517Z 24013KT 33/16 A30 RMK A01 T03290156  RH  035%=      5-min Rain = 0
KCO2 141518Z 23015KT 33/16 A30 RMK A01 T03280155  RH  035%=      5-min Rain = 0
KCO2 141519Z 23015KT 33/15 A30 RMK A01 T03260154  RH  035%=      5-min Rain = 0
KCO2 141520Z 23012KT 32/15 A30 RMK A01 T03240154  RH  036%=      5-min Rain = 0
KCO2 141521Z 23011G17KT 33/16 A30 RMK A01 T03250156  RH  036%=      5-min Rain = 0
KCO2 141522Z 23014KT 33/15 A30 RMK A01 T03270154  RH  035%=      5-min Rain = 0
KCO2 141523Z 23012KT 33/15 A30 RMK A01 T03270154  RH  035%=      5-min Rain = 0
KCO2 141524Z 23012KT 33/16 A30 RMK A01 T03270155  RH  035%=      5-min Rain = 0
KCO2 141525Z 23010KT 33/16 A30 RMK A01 T03270155  RH  035%=      5-min Rain = 0
KCO2 141526Z 21008KT 33/16 A30 RMK A01 T03290157  RH  036%=      5-min Rain = 0
KCO2 141527Z 21014KT 33/16 A30 RMK A01 T03330156  RH  035%=      5-min Rain = 0
KCO2 141528Z 21013KT 33/16 A30 RMK A01 T03340155  RH  034%=      5-min Rain = 0
KCO2 141529Z 22010KT 33/16 A30 RMK A01 T03310156  RH  035%=      5-min Rain = 0
KCO2 141530Z 22011G16KT 33/16 A30 RMK A01 T03330156  RH  034%=      5-min Rain = 0
KCO2 141531Z 22014KT 34/16 A30 RMK A01 T03350156  RH  034%=      5-min Rain = 0
KCO2 141532Z 23010KT 33/16 A30 RMK A01 T03340155  RH  034%=      5-min Rain = 0
KCO2 141533Z 23011KT 34/16 A30 RMK A01 T03360156  RH  034%=      5-min Rain = 0
KCO2 141534Z 22013KT 34/16 A30 RMK A01 T03370155  RH  034%=      5-min Rain = 0
KCO2 141535Z 22010KT 34/16 A30 RMK A01 T03360155  RH  034%=      5-min Rain = 0
KCO2 141536Z 24011KT 34/16 A30 RMK A01 T03350156  RH  034%=      5-min Rain = 0
KCO2 141537Z 24009KT 34/16 A30 RMK A01 T03360156  RH  034%=      5-min Rain = 0
KCO2 141538Z 23010KT 34/16 A30 RMK A01 T03360156  RH  034%=      5-min Rain = 0
KCO2 141539Z 22014KT 34/16 A30 RMK A01 T03380155  RH  034%=      5-min Rain = 0
KCO2 141540Z 23012G18KT 34/16 A30 RMK A01 T03390155  RH  033%=      5-min Rain = 0
KCO2 141541Z 22014KT 34/15 A30 RMK A01 T03400153  RH  033%=      5-min Rain = 0
KCO2 141542Z 23011KT 34/15 A30 RMK A01 T03370153  RH  033%=      5-min Rain = 0
KCO2 141543Z 23015KT 34/15 A30 RMK A01 T03370154  RH  033%=      5-min Rain = 0
KCO2 141544Z 21013KT 34/15 A30 RMK A01 T03370153  RH  033%=      5-min Rain = 0
KCO2 141545Z 22013KT 34/15 A30 RMK A01 T03370154  RH  033%=      5-min Rain = 0
KCO2 141546Z 21011KT 34/16 A30 RMK A01 T03380155  RH  033%=      5-min Rain = 0
KCO2 141547Z 21013KT 34/16 A30 RMK A01 T03400155  RH  033%=      5-min Rain = 0
KCO2 141548Z 20010KT 34/16 A30 RMK A01 T03400156  RH  033%=      5-min Rain = 0
KCO2 141549Z 20010KT 34/16 A30 RMK A01 T03400156  RH  033%=      5-min Rain = 0
KCO2 141550Z 22012KT 34/16 A30 RMK A01 T03410156  RH  033%=      5-min Rain = 0
KCO2 141551Z 22008KT 34/16 A30 RMK A01 T03420156  RH  033%=      5-min Rain = 0
KCO2 141552Z 23012KT 34/16 A30 RMK A01 T03440156  RH  033%=      5-min Rain = 0
KCO2 141553Z 21009G16KT 35/16 A30 RMK A01 T03450156  RH  032%=      5-min Rain = 0
KCO2 141554Z 22010G15KT 35/16 A30 RMK A01 T03470156  RH  032%=      5-min Rain = 0
KCO2 141555Z 21011KT 35/16 A30 RMK A01 T03470156  RH  032%=      5-min Rain = 0
KCO2 141556Z 21011KT 35/16 A30 RMK A01 T03470156  RH  032%=      5-min Rain = 0
KCO2 141557Z 22011KT 35/16 A30 RMK A01 T03470156  RH  032%=      5-min Rain = 0
KCO2 141558Z 23009KT 35/16 A30 RMK A01 T03460155  RH  032%=      5-min Rain = 0
KCO2 141559Z 22010KT 35/16 A30 RMK A01 T03470156  RH  032%=      5-min Rain = 0
KCO2 141600Z 21007KT 35/16 A30 RMK A01 T03470156  RH  032%=      5-min Rain = 0
KCO2 141601Z 21014G19KT 35/16 A30 RMK A01 T03490156  RH  032%=      5-min Rain = 0
KCO2 141602Z 22011KT 35/15 A30 RMK A01 T03480154  RH  031%=      5-min Rain = 0
KCO2 141603Z 22011KT 35/15 A30 RMK A01 T03470154  RH  032%=      5-min Rain = 0
KCO2 141604Z 23010KT 35/15 A30 RMK A01 T03470154  RH  032%=      5-min Rain = 0
KCO2 141605Z 22010KT 35/16 A30 RMK A01 T03470155  RH  032%=      5-min Rain = 0
KCO2 141606Z 23008KT 35/16 A30 RMK A01 T03480156  RH  032%=      5-min Rain = 0
KCO2 141607Z 23008G13KT 35/16 A30 RMK A01 T03480156  RH  032%=      5-min Rain = 0
KCO2 141608Z 23011KT 35/16 A30 RMK A01 T03480155  RH  032%=      5-min Rain = 0
KCO2 141609Z 22012KT 35/15 A30 RMK A01 T03510153  RH  031%=      5-min Rain = 0
KCO2 141610Z 23011KT 35/15 A30 RMK A01 T03520152  RH  030%=      5-min Rain = 0
KCO2 141611Z 22011KT 35/15 A30 RMK A01 T03500152  RH  031%=      5-min Rain = 0
KCO2 141612Z 20011KT 35/15 A30 RMK A01 T03500152  RH  031%=      5-min Rain = 0
KCO2 141613Z 19014KT 35/15 A2999 RMK A01 T03510151  RH  030%=      5-min Rain = 0
KCO2 141614Z 21011KT 35/15 A30 RMK A01 T03540150  RH  030%=      5-min Rain = 0
KCO2 141615Z 21010KT 36/15 A30 RMK A01 T03550151  RH  030%=      5-min Rain = 0
KCO2 141616Z 21008KT 36/15 A30 RMK A01 T03550151  RH  030%=      5-min Rain = 0
KCO2 141617Z 21008KT 36/15 A30 RMK A01 T03550152  RH  030%=      5-min Rain = 0
KCO2 141618Z 20009KT 36/15 A30 RMK A01 T03560154  RH  030%=      5-min Rain = 0
KCO2 141619Z 20012KT 36/15 A30 RMK A01 T03610153  RH  029%=      5-min Rain = 0
KCO2 141620Z 21010KT 36/15 A30 RMK A01 T03610152  RH  029%=      5-min Rain = 0
KCO2 141621Z 24009KT 36/15 A30 RMK A01 T03600152  RH  029%=      5-min Rain = 0
KCO2 141622Z 22009KT 36/15 A30 RMK A01 T03600153  RH  029%=      5-min Rain = 0
KCO2 141623Z 22008KT 36/15 A30 RMK A01 T03630154  RH  029%=      5-min Rain = 0
KCO2 141624Z 22007KT 36/15 A30 RMK A01 T03610151  RH  029%=      5-min Rain = 0
KCO2 141625Z 20012KT 36/15 A30 RMK A01 T03580152  RH  029%=      5-min Rain = 0
KCO2 141626Z 21011KT 36/15 A30 RMK A01 T03590151  RH  029%=      5-min Rain = 0
KCO2 141627Z 23010KT 36/15 A30 RMK A01 T03620152  RH  029%=      5-min Rain = 0
KCO2 141628Z 24012KT 36/15 A30 RMK A01 T03620150  RH  028%=      5-min Rain = 0
KCO2 141629Z 24013KT 36/15 A30 RMK A01 T03600149  RH  029%=      5-min Rain = 0
KCO2 141630Z 23009KT 36/15 A30 RMK A01 T03610149  RH  028%=      5-min Rain = 0
KCO2 141631Z 23012KT 36/15 A2999 RMK A01 T03620149  RH  028%=      5-min Rain = 0
KCO2 141632Z 23011KT 36/15 A2999 RMK A01 T03610149  RH  028%=      5-min Rain = 0
KCO2 141633Z 21013KT 36/15 A30 RMK A01 T03620150  RH  028%=      5-min Rain = 0
KCO2 141634Z 21009KT 36/15 A2999 RMK A01 T03620150  RH  028%=      5-min Rain = 0
KCO2 141635Z 20009KT 36/15 A2999 RMK A01 T03610151  RH  029%=      5-min Rain = 0
KCO2 141636Z 20011G16KT 36/15 A2999 RMK A01 T03640151  RH  028%=      5-min Rain = 0
KCO2 141637Z 20012KT 37/15 A2999 RMK A01 T03660151  RH  028%=      5-min Rain = 0
KCO2 141638Z 23011KT 36/15 A2999 RMK A01 T03640151  RH  028%=      5-min Rain = 0
KCO2 141639Z 23011KT 37/15 A2999 RMK A01 T03650148  RH  028%=      5-min Rain = 0
KCO2 141640Z 23014KT 37/15 A2999 RMK A01 T03670145  RH  027%=      5-min Rain = 0
KCO2 141641Z 24010KT 37/14 A2999 RMK A01 T03660142  RH  026%=      5-min Rain = 0
KCO2 141642Z 23010G17KT 37/14 A2999 RMK A01 T03650143  RH  027%=      5-min Rain = 0
KCO2 141643Z 23012G17KT 37/15 A2999 RMK A01 T03650145  RH  027%=      5-min Rain = 0
KCO2 141644Z 23008KT 37/14 A2999 RMK A01 T03660144  RH  027%=      5-min Rain = 0
KCO2 141645Z 23009G14KT 36/15 A2999 RMK A01 T03630145  RH  027%=      5-min Rain = 0
KCO2 141646Z 20015KT 37/15 A2999 RMK A01 T03650146  RH  027%=      5-min Rain = 0
KCO2 141647Z 21011G16KT 37/15 A2999 RMK A01 T03690146  RH  027%=      5-min Rain = 0
KCO2 141648Z 22010KT 37/14 A2999 RMK A01 T03690144  RH  026%=      5-min Rain = 0
KCO2 141649Z 23010G15KT 37/14 A2999 RMK A01 T03680144  RH  026%=      5-min Rain = 0
KCO2 141650Z 24014KT 37/15 A2999 RMK A01 T03690145  RH  026%=      5-min Rain = 0
KCO2 141651Z 24009KT 37/14 A2999 RMK A01 T03700144  RH  026%=      5-min Rain = 0
KCO2 141652Z 21008KT 37/15 A2999 RMK A01 T03710145  RH  026%=      5-min Rain = 0
KCO2 141653Z 20010G15KT 37/15 A2999 RMK A01 T03730146  RH  026%=      5-min Rain = 0
KCO2 141654Z 20012KT 38/15 A2999 RMK A01 T03760146  RH  026%=      5-min Rain = 0
KCO2 141655Z 20010KT 38/15 A2999 RMK A01 T03760145  RH  025%=      5-min Rain = 0
KCO2 141656Z 20008KT 38/15 A2999 RMK A01 T03750147  RH  026%=      5-min Rain = 0
KCO2 141657Z 23011KT 38/15 A2999 RMK A01 T03770146  RH  026%=      5-min Rain = 0
KCO2 141658Z 22011KT 38/14 A2999 RMK A01 T03780144  RH  025%=      5-min Rain = 0
KCO2 141659Z 21010KT 38/15 A2999 RMK A01 T03790146  RH  025%=      5-min Rain = 0
KCO2 141700Z 19012G18KT 38/15 A2999 RMK A01 T03780148  RH  026%=      5-min Rain = 0
KCO2 141701Z 20012KT 38/15 A2999 RMK A01 T03750146  RH  026%=      5-min Rain = 0
KCO2 141702Z 21011KT 37/15 A2999 RMK A01 T03720145  RH  026%=      5-min Rain = 0
KCO2 141703Z 20009KT 37/15 A2999 RMK A01 T03710146  RH  026%=      5-min Rain = 0
KCO2 141704Z 20009G15KT 37/15 A2999 RMK A01 T03710147  RH  026%=      5-min Rain = 0
KCO2 141705Z 19010KT 37/15 A2998 RMK A01 T03720146  RH  026%=      5-min Rain = 0
KCO2 141706Z 21010G15KT 37/15 A2998 RMK A01 T03740145  RH  026%=      5-min Rain = 0
KCO2 141707Z 22013KT 38/14 A2999 RMK A01 T03780144  RH  025%=      5-min Rain = 0
KCO2 141708Z 23010KT 38/14 A2999 RMK A01 T03800144  RH  025%=      5-min Rain = 0
KCO2 141709Z 24007KT 38/14 A2998 RMK A01 T03770143  RH  025%=      5-min Rain = 0
KCO2 141710Z 23006KT 37/15 A2998 RMK A01 T03740145  RH  026%=      5-min Rain = 0
KCO2 141711Z 21006KT 38/15 A2998 RMK A01 T03770147  RH  026%=      5-min Rain = 0
KCO2 141712Z 22011G17KT 38/15 A2998 RMK A01 T03830146  RH  025%=      5-min Rain = 0
KCO2 141713Z 22013KT 39/14 A2998 RMK A01 T03850139  RH  023%=      5-min Rain = 0
KCO2 141714Z 22009KT 38/14 A2998 RMK A01 T03820135  RH  023%=      5-min Rain = 0
KCO2 141715Z 23006KT 38/14 A2998 RMK A01 T03790138  RH  024%=      5-min Rain = 0
KCO2 141716Z 24007KT 38/14 A2998 RMK A01 T03790138  RH  024%=      5-min Rain = 0
KCO2 141717Z 21007KT 38/14 A2998 RMK A01 T03820138  RH  024%=      5-min Rain = 0
KCO2 141718Z 19009KT 38/14 A2998 RMK A01 T03820139  RH  024%=      5-min Rain = 0
KCO2 141719Z 21010KT 38/14 A2998 RMK A01 T03810142  RH  024%=      5-min Rain = 0
KCO2 141720Z 22010KT 38/14 A2998 RMK A01 T03820140  RH  024%=      5-min Rain = 0
KCO2 141721Z 20011KT 38/14 A2998 RMK A01 T03830144  RH  024%=      5-min Rain = 0
KCO2 141722Z 19009KT 38/14 A2998 RMK A01 T03840144  RH  024%=      5-min Rain = 0
KCO2 141723Z 20011KT 38/14 A2998 RMK A01 T03830142  RH  024%=      5-min Rain = 0
KCO2 141724Z 22012KT 38/14 A2998 RMK A01 T03840140  RH  023%=      5-min Rain = 0
KCO2 141725Z 23010KT 38/14 A2998 RMK A01 T03840139  RH  023%=      5-min Rain = 0
KCO2 141726Z 23008KT 38/14 A2998 RMK A01 T03810137  RH  023%=      5-min Rain = 0
KCO2 141727Z 23008KT 38/14 A2998 RMK A01 T03790139  RH  024%=      5-min Rain = 0
KCO2 141728Z 21012KT 39/14 A2998 RMK A01 T03850138  RH  023%=      5-min Rain = 0
KCO2 141729Z 19009KT 39/14 A2998 RMK A01 T03880142  RH  023%=      5-min Rain = 0
KCO2 141730Z 22011KT 39/14 A2998 RMK A01 T03880137  RH  023%=      5-min Rain = 0
KCO2 141731Z 21010KT 39/14 A2998 RMK A01 T03850135  RH  023%=      5-min Rain = 0
KCO2 141732Z 22010KT 39/13 A2998 RMK A01 T03850131  RH  022%=      5-min Rain = 0
KCO2 141733Z 22008KT 39/13 A2998 RMK A01 T03860130  RH  022%=      5-min Rain = 0
KCO2 141734Z 22009KT 39/14 A2998 RMK A01 T03860136  RH  023%=      5-min Rain = 0
KCO2 141735Z 22006KT 39/14 A2998 RMK A01 T03850136  RH  023%=      5-min Rain = 0
KCO2 141736Z 20007KT 39/14 A2998 RMK A01 T03880139  RH  023%=      5-min Rain = 0
KCO2 141737Z 20009KT 39/14 A2998 RMK A01 T03910138  RH  022%=      5-min Rain = 0
KCO2 141738Z 17007KT 39/14 A2998 RMK A01 T03920137  RH  022%=      5-min Rain = 0
KCO2 141739Z 19008KT 39/14 A2997 RMK A01 T03930137  RH  022%=      5-min Rain = 0
KCO2 141740Z 21011KT 39/13 A2997 RMK A01 T03930134  RH  022%=      5-min Rain = 0
KCO2 141741Z 21008KT 39/13 A2997 RMK A01 T03910132  RH  022%=      5-min Rain = 0
KCO2 141742Z 19011KT 39/14 A2997 RMK A01 T03910135  RH  022%=      5-min Rain = 0
KCO2 141743Z 19011KT 39/14 A2997 RMK A01 T03920136  RH  022%=      5-min Rain = 0
KCO2 141744Z 20011KT 39/13 A2997 RMK A01 T03900134  RH  022%=      5-min Rain = 0
KCO2 141745Z 20009KT 39/13 A2997 RMK A01 T03890133  RH  022%=      5-min Rain = 0
KCO2 141746Z 22009G14KT 39/14 A2997 RMK A01 T03890135  RH  022%=      5-min Rain = 0
KCO2 141747Z 22010G16KT 39/13 A2997 RMK A01 T03940133  RH  021%=      5-min Rain = 0
KCO2 141748Z 24012KT 40/13 A2997 RMK A01 T03960127  RH  020%=      5-min Rain = 0
KCO2 141749Z 24008KT 40/12 A2997 RMK A01 T03950124  RH  020%=      5-min Rain = 0
KCO2 141750Z 23008KT 39/13 A2997 RMK A01 T03920125  RH  021%=      5-min Rain = 0
KCO2 141751Z 24012KT 40/13 A2997 RMK A01 T03960129  RH  021%=      5-min Rain = 0
KCO2 141752Z 24007KT 40/13 A2997 RMK A01 T03970127  RH  020%=      5-min Rain = 0
KCO2 141753Z 20008KT 40/13 A2997 RMK A01 T03950130  RH  021%=      5-min Rain = 0
KCO2 141754Z 21007KT 39/13 A2997 RMK A01 T03940132  RH  021%=      5-min Rain = 0
KCO2 141755Z 23010KT 39/13 A2997 RMK A01 T03930134  RH  022%=      5-min Rain = 0
KCO2 141756Z 20011KT 40/13 A2997 RMK A01 T03950133  RH  021%=      5-min Rain = 0
KCO2 141757Z 19012KT 40/13 A2996 RMK A01 T03960132  RH  021%=      5-min Rain = 0
KCO2 141758Z 18011KT 40/13 A2996 RMK A01 T03960132  RH  021%=      5-min Rain = 0
KCO2 141759Z 19011KT 40/13 A2996 RMK A01 T03990129  RH  020%=      5-min Rain = 0
KCO2 141800Z 21010KT 40/13 A2996 RMK A01 T04020128  RH  020%=      5-min Rain = 0
KCO2 141801Z 19009KT 41/13 A2996 RMK A01 T04060127  RH  019%=      5-min Rain = 0
KCO2 141802Z 18009KT 41/13 A2996 RMK A01 T04050125  RH  019%=      5-min Rain = 0
KCO2 141803Z 19009KT 40/12 A2996 RMK A01 T04020124  RH  019%=      5-min Rain = 0
KCO2 141804Z 19007KT 40/12 A2996 RMK A01 T04000121  RH  019%=      5-min Rain = 0
KCO2 141805Z 19006KT 40/12 A2996 RMK A01 T03980122  RH  019%=      5-min Rain = 0
KCO2 141806Z 21008KT 40/12 A2996 RMK A01 T03990123  RH  019%=      5-min Rain = 0
KCO2 141807Z 20011KT 41/12 A2996 RMK A01 T04050124  RH  019%=      5-min Rain = 0
KCO2 141808Z 19008KT 40/12 A2996 RMK A01 T04040119  RH  018%=      5-min Rain = 0
KCO2 141809Z 18009KT 40/12 A2996 RMK A01 T04020120  RH  019%=      5-min Rain = 0
KCO2 141810Z 18009KT 40/12 A2996 RMK A01 T04040117  RH  018%=      5-min Rain = 0
KCO2 141811Z 20011KT 41/12 A2996 RMK A01 T04080119  RH  018%=      5-min Rain = 0
KCO2 141812Z 21010KT 41/12 A2996 RMK A01 T04090118  RH  018%=      5-min Rain = 0
KCO2 141813Z 19009KT 41/12 A2996 RMK A01 T04070116  RH  018%=      5-min Rain = 0
KCO2 141814Z 19006KT 41/12 A2996 RMK A01 T04060117  RH  018%=      5-min Rain = 0
KCO2 141815Z 19009KT 41/12 A2996 RMK A01 T04050120  RH  019%=      5-min Rain = 0
KCO2 141816Z 19010KT 40/12 A2996 RMK A01 T04030124  RH  019%=      5-min Rain = 0
KCO2 141817Z 21009KT 41/12 A2996 RMK A01 T04070123  RH  019%=      5-min Rain = 0
KCO2 141818Z 23010KT 41/11 A2996 RMK A01 T04110110  RH  017%=      5-min Rain = 0
KCO2 141819Z 21008KT 41/11 A2996 RMK A01 T04100110  RH  017%=      5-min Rain = 0
KCO2 141820Z 25006KT 41/11 A2996 RMK A01 T04060107  RH  017%=      5-min Rain = 0
KCO2 141821Z 23008KT 40/11 A2995 RMK A01 T04020107  RH  017%=      5-min Rain = 0
KCO2 141822Z 21011G16KT 40/11 A2996 RMK A01 T04010105  RH  017%=      5-min Rain = 0
KCO2 141823Z 20008KT 40/10 A2996 RMK A01 T04000103  RH  017%=      5-min Rain = 0
KCO2 141824Z 22008KT 40/11 A2995 RMK A01 T03990105  RH  017%=      5-min Rain = 0
KCO2 141825Z 21008KT 40/11 A2995 RMK A01 T04010108  RH  017%=      5-min Rain = 0
KCO2 141826Z 19011KT 41/12 A2995 RMK A01 T04070115  RH  018%=      5-min Rain = 0
KCO2 141827Z 18009KT 41/12 A2995 RMK A01 T04120117  RH  018%=      5-min Rain = 0
KCO2 141828Z 20011KT 42/12 A2995 RMK A01 T04150119  RH  017%=      5-min Rain = 0
KCO2 141829Z 21007KT 42/12 A2995 RMK A01 T04170118  RH  017%=      5-min Rain = 0
KCO2 141830Z 21006KT 42/12 A2995 RMK A01 T04200117  RH  017%=      5-min Rain = 0
KCO2 141831Z 20006KT 42/11 A2995 RMK A01 T04220114  RH  016%=      5-min Rain = 0
KCO2 141832Z 19009KT 42/11 A2995 RMK A01 T04240111  RH  016%=      5-min Rain = 0
KCO2 141833Z 20010KT 42/10 A2995 RMK A01 T04230102  RH  015%=      5-min Rain = 0
KCO2 141834Z 21009KT 42/10 A2995 RMK A01 T04210102  RH  015%=      5-min Rain = 0
KCO2 141835Z 20007KT 42/10 A2995 RMK A01 T04200101  RH  015%=      5-min Rain = 0
KCO2 141836Z 20006KT 42/10 A2995 RMK A01 T04170100  RH  015%=      5-min Rain = 0
KCO2 141837Z 19006KT 41/10 A2995 RMK A01 T04130097  RH  015%=      5-min Rain = 0
KCO2 141838Z 22009KT 41/09 A2995 RMK A01 T04120093  RH  015%=      5-min Rain = 0
KCO2 141839Z 23010KT 42/09 A2995 RMK A01 T04190092  RH  014%=      5-min Rain = 0
KCO2 141840Z 24008KT 42/08 A2995 RMK A01 T04220083  RH  013%=      5-min Rain = 0
KCO2 141841Z 24003KT 42/08 A2995 RMK A01 T04170078  RH  013%=      5-min Rain = 0
KCO2 141842Z 22005KT 41/08 A2995 RMK A01 T04130081  RH  014%=      5-min Rain = 0
KCO2 141843Z 21005KT 41/09 A2995 RMK A01 T04140086  RH  014%=      5-min Rain = 0
KCO2 141844Z 21008KT 42/09 A2995 RMK A01 T04190094  RH  014%=      5-min Rain = 0
KCO2 141845Z 22008KT 42/09 A2995 RMK A01 T04210093  RH  014%=      5-min Rain = 0
KCO2 141846Z 23009G14KT 42/08 A2994 RMK A01 T04190081  RH  013%=      5-min Rain = 0
KCO2 141847Z 25009KT 42/08 A2994 RMK A01 T04200076  RH  013%=      5-min Rain = 0
KCO2 141848Z 23008KT 42/08 A2994 RMK A01 T04240079  RH  013%=      5-min Rain = 0
KCO2 141849Z 20008G14KT 43/08 A2994 RMK A01 T04280083  RH  013%=      5-min Rain = 0
KCO2 141850Z 22014KT 43/08 A2994 RMK A01 T04260082  RH  013%=      5-min Rain = 0
KCO2 141851Z 21011KT 42/08 A2994 RMK A01 T04220075  RH  012%=      5-min Rain = 0
KCO2 141852Z 19008KT 42/08 A2994 RMK A01 T04180075  RH  013%=      5-min Rain = 0
KCO2 141853Z 19009KT 42/08 A2994 RMK A01 T04150076  RH  013%=      5-min Rain = 0
KCO2 141854Z 21009KT 42/08 A2994 RMK A01 T04150077  RH  013%=      5-min Rain = 0
KCO2 141855Z 21010KT 42/08 A2994 RMK A01 T04170080  RH  013%=      5-min Rain = 0
KCO2 141856Z 21009KT 42/08 A2994 RMK A01 T04180080  RH  013%=      5-min Rain = 0
KCO2 141857Z 21007KT 42/07 A2994 RMK A01 T04210073  RH  012%=      5-min Rain = 0
KCO2 141858Z 21005KT 42/08 A2994 RMK A01 T04220079  RH  013%=      5-min Rain = 0
KCO2 141859Z 21005KT 42/08 A2994 RMK A01 T04210081  RH  013%=      5-min Rain = 0
KCO2 141900Z 16005KT 42/08 A2994 RMK A01 T04240081  RH  013%=      5-min Rain = 0
KCO2 141901Z 18006KT 43/08 A2994 RMK A01 T04250079  RH  013%=      5-min Rain = 0
KCO2 141902Z 18006KT 43/08 A2994 RMK A01 T04250078  RH  013%=      5-min Rain = 0
KCO2 141903Z 18006G12KT 42/07 A2993 RMK A01 T04240074  RH  012%=      5-min Rain = 0
KCO2 141904Z 25009KT 43/07 A2994 RMK A01 T04250072  RH  012%=      5-min Rain = 0
KCO2 141905Z 24012KT 43/07 A2994 RMK A01 T04270068  RH  012%=      5-min Rain = 0
KCO2 141906Z 25010KT 43/07 A2994 RMK A01 T04280065  RH  011%=      5-min Rain = 0
KCO2 141907Z 25008KT 43/07 A2994 RMK A01 T04250066  RH  012%=      5-min Rain = 0
KCO2 141908Z 22008G13KT 42/07 A2994 RMK A01 T04230069  RH  012%=      5-min Rain = 0
KCO2 141909Z 22009G14KT 43/07 A2994 RMK A01 T04270073  RH  012%=      5-min Rain = 0
KCO2 141910Z 24004KT 42/07 A2994 RMK A01 T04230070  RH  012%=      5-min Rain = 0
KCO2 141911Z 23006KT 42/07 A2994 RMK A01 T04180070  RH  012%=      5-min Rain = 0
KCO2 141912Z 23010KT 42/07 A2993 RMK A01 T04160069  RH  012%=      5-min Rain = 0
KCO2 141913Z 23010KT 42/07 A2993 RMK A01 T04190070  RH  012%=      5-min Rain = 0
KCO2 141914Z 23009KT 42/07 A2993 RMK A01 T04220069  RH  012%=      5-min Rain = 0
KCO2 141915Z 23010KT 43/07 A2993 RMK A01 T04250068  RH  012%=      5-min Rain = 0
KCO2 141916Z 22011KT 43/07 A2993 RMK A01 T04260070  RH  012%=      5-min Rain = 0
KCO2 141917Z 21008KT 43/07 A2993 RMK A01 T04250073  RH  012%=      5-min Rain = 0
KCO2 141918Z 21009KT 42/07 A2993 RMK A01 T04230073  RH  012%=      5-min Rain = 0
KCO2 141919Z 23010KT 42/07 A2993 RMK A01 T04240071  RH  012%=      5-min Rain = 0
KCO2 141920Z 23008KT 42/07 A2993 RMK A01 T04220071  RH  012%=      5-min Rain = 0
KCO2 141921Z 22006KT 42/07 A2993 RMK A01 T04230074  RH  012%=      5-min Rain = 0
KCO2 141922Z 23005KT 42/07 A2993 RMK A01 T04240073  RH  012%=      5-min Rain = 0
KCO2 141923Z 27004KT 42/07 A2993 RMK A01 T04230072  RH  012%=      5-min Rain = 0
KCO2 141924Z 24003KT 42/07 A2993 RMK A01 T04210073  RH  012%=      5-min Rain = 0
KCO2 141925Z 21007G14KT 42/07 A2992 RMK A01 T04210073  RH  012%=      5-min Rain = 0
KCO2 141926Z 19008G14KT 42/07 A2992 RMK A01 T04230073  RH  012%=      5-min Rain = 0
KCO2 141927Z 19007KT 43/08 A2992 RMK A01 T04260075  RH  012%=      5-min Rain = 0
KCO2 141928Z 20008G13KT 43/08 A2992 RMK A01 T04260075  RH  012%=      5-min Rain = 0
KCO2 141929Z 23009KT 43/07 A2992 RMK A01 T04250067  RH  012%=      5-min Rain = 0
KCO2 141930Z 24010KT 43/06 A2992 RMK A01 T04260064  RH  011%=      5-min Rain = 0
KCO2 141931Z 24009KT 43/07 A2992 RMK A01 T04270065  RH  011%=      5-min Rain = 0
KCO2 141932Z 27007KT 43/07 A2992 RMK A01 T04300065  RH  011%=      5-min Rain = 0
KCO2 141933Z 25007KT 43/06 A2992 RMK A01 T04290063  RH  011%=      5-min Rain = 0
KCO2 141934Z 24006KT 43/06 A2992 RMK A01 T04270064  RH  011%=      5-min Rain = 0
KCO2 141935Z 27004KT 43/06 A2992 RMK A01 T04280062  RH  011%=      5-min Rain = 0
KCO2 141936Z 25001KT 43/06 A2992 RMK A01 T04260062  RH  011%=      5-min Rain = 0
KCO2 141937Z 26005KT 43/06 A2992 RMK A01 T04260062  RH  011%=      5-min Rain = 0
KCO2 141938Z 27005KT 43/06 A2992 RMK A01 T04260060  RH  011%=      5-min Rain = 0
KCO2 141939Z 31002KT 42/06 A2992 RMK A01 T04240061  RH  011%=      5-min Rain = 0
KCO2 141940Z 24001KT 42/06 A2992 RMK A01 T04220059  RH  011%=      5-min Rain = 0
KCO2 141941Z 22006KT 42/06 A2992 RMK A01 T04220064  RH  012%=      5-min Rain = 0
KCO2 141942Z 22009KT 43/07 A2992 RMK A01 T04260070  RH  012%=      5-min Rain = 0
KCO2 141943Z 22011KT 43/07 A2992 RMK A01 T04330073  RH  012%=      5-min Rain = 0
KCO2 141944Z 23010KT 44/07 A2992 RMK A01 T04360073  RH  011%=      5-min Rain = 0
KCO2 141945Z 24011KT 44/07 A2992 RMK A01 T04360072  RH  011%=      5-min Rain = 0
KCO2 141946Z 27011KT 43/07 A2992 RMK A01 T04330071  RH  011%=      5-min Rain = 0
KCO2 141947Z 28008G13KT 43/07 A2992 RMK A01 T04310069  RH  011%=      5-min Rain = 0
KCO2 141948Z 30005KT 43/07 A2992 RMK A01 T04310072  RH  012%=      5-min Rain = 0
KCO2 141949Z 29004KT 43/07 A2992 RMK A01 T04310072  RH  012%=      5-min Rain = 0
KCO2 141950Z 24002KT 43/08 A2992 RMK A01 T04320075  RH  012%=      5-min Rain = 0
KCO2 141951Z 23005KT 43/07 A2991 RMK A01 T04340070  RH  011%=      5-min Rain = 0
KCO2 141952Z 23007KT 43/07 A2991 RMK A01 T04300069  RH  011%=      5-min Rain = 0
KCO2 141953Z 25005KT 43/07 A2991 RMK A01 T04280069  RH  012%=      5-min Rain = 0
KCO2 141954Z 25004KT 43/07 A2991 RMK A01 T04270068  RH  012%=      5-min Rain = 0
KCO2 141955Z 17004KT 43/07 A2991 RMK A01 T04270070  RH  012%=      5-min Rain = 0
KCO2 141956Z 17004KT 43/07 A2991 RMK A01 T04280069  RH  012%=      5-min Rain = 0
KCO2 141957Z 18004KT 43/07 A2991 RMK A01 T04270066  RH  011%=      5-min Rain = 0
KCO2 141958Z 22004KT 43/07 A2991 RMK A01 T04270071  RH  012%=      5-min Rain = 0
KCO2 141959Z 24006G13KT 43/08 A2991 RMK A01 T04330075  RH  012%=      5-min Rain = 0
KCO2 142000Z 21011KT 44/07 A2991 RMK A01 T04380073  RH  011%=      5-min Rain = 0
KCO2 142001Z 21010KT 44/07 A2991 RMK A01 T04380073  RH  011%=      5-min Rain = 0
KCO2 142002Z 21008KT 44/07 A2991 RMK A01 T04370072  RH  011%=      5-min Rain = 0
KCO2 142003Z 22008KT 44/07 A2991 RMK A01 T04350070  RH  011%=      5-min Rain = 0
KCO2 142004Z 20008KT 43/07 A2991 RMK A01 T04330071  RH  011%=      5-min Rain = 0
KCO2 142005Z 22011KT 43/07 A2991 RMK A01 T04340070  RH  011%=      5-min Rain = 0
KCO2 142006Z 21008KT 43/07 A2991 RMK A01 T04320069  RH  011%=      5-min Rain = 0
KCO2 142007Z 23007KT 43/07 A2991 RMK A01 T04310069  RH  011%=      5-min Rain = 0
KCO2 142008Z 23002KT 43/07 A2991 RMK A01 T04280068  RH  012%=      5-min Rain = 0
KCO2 142009Z 25002KT 43/07 A2991 RMK A01 T04260068  RH  012%=      5-min Rain = 0
KCO2 142010Z 24002KT 43/07 A299 RMK A01 T04270069  RH  012%=      5-min Rain = 0
KCO2 142011Z 25005KT 43/07 A299 RMK A01 T04300071  RH  012%=      5-min Rain = 0
KCO2 142012Z 31006KT 43/07 A299 RMK A01 T04320072  RH  012%=      5-min Rain = 0
KCO2 142013Z 26006KT 43/07 A299 RMK A01 T04340074  RH  012%=      5-min Rain = 0
KCO2 142014Z 23010KT 43/07 A299 RMK A01 T04340072  RH  012%=      5-min Rain = 0
KCO2 142015Z 22010KT 44/07 A299 RMK A01 T04370072  RH  011%=      5-min Rain = 0
KCO2 142016Z 23013G18KT 44/07 A299 RMK A01 T04370071  RH  011%=      5-min Rain = 0
KCO2 142017Z 23011KT 44/07 A299 RMK A01 T04380072  RH  011%=      5-min Rain = 0
KCO2 142018Z 25007KT 44/07 A299 RMK A01 T04370071  RH  011%=      5-min Rain = 0
KCO2 142019Z 25004KT 44/07 A299 RMK A01 T04350071  RH  011%=      5-min Rain = 0
KCO2 142020Z 22006KT 43/07 A299 RMK A01 T04330072  RH  012%=      5-min Rain = 0
KCO2 142021Z 21004KT 43/07 A299 RMK A01 T04320071  RH  012%=      5-min Rain = 0
KCO2 142022Z 33001KT 43/07 A299 RMK A01 T04290070  RH  012%=      5-min Rain = 0
KCO2 142023Z 31001KT 43/07 A299 RMK A01 T04260067  RH  012%=      5-min Rain = 0
KCO2 142024Z 35002KT 43/07 A299 RMK A01 T04250072  RH  012%=      5-min Rain = 0
KCO2 142025Z 03003KT 43/07 A299 RMK A01 T04270072  RH  012%=      5-min Rain = 0
KCO2 142026Z 15005KT 43/07 A299 RMK A01 T04280072  RH  012%=      5-min Rain = 0
KCO2 142027Z 22013KT 43/07 A2989 RMK A01 T04310073  RH  012%=      5-min Rain = 0
KCO2 142028Z 22009KT 44/07 A2989 RMK A01 T04350071  RH  011%=      5-min Rain = 0
KCO2 142029Z 23012KT 44/07 A2989 RMK A01 T04350071  RH  011%=      5-min Rain = 0
KCO2 142030Z 25012KT 44/07 A2989 RMK A01 T04370071  RH  011%=      5-min Rain = 0
KCO2 142031Z 25010KT 44/07 A2989 RMK A01 T04370069  RH  011%=      5-min Rain = 0
KCO2 142032Z 25009KT 43/07 A2989 RMK A01 T04340069  RH  011%=      5-min Rain = 0
KCO2 142033Z 23007KT 43/07 A2989 RMK A01 T04330070  RH  011%=      5-min Rain = 0
KCO2 142034Z 24009KT 43/07 A2989 RMK A01 T04340069  RH  011%=      5-min Rain = 0
KCO2 142035Z 21010KT 44/07 A2989 RMK A01 T04360072  RH  011%=      5-min Rain = 0
KCO2 142036Z 24006KT 44/07 A2989 RMK A01 T04380070  RH  011%=      5-min Rain = 0
KCO2 142037Z 22005KT 44/07 A2989 RMK A01 T04370071  RH  011%=      5-min Rain = 0
KCO2 142038Z 14002KT 43/07 A2989 RMK A01 T04330067  RH  011%=      5-min Rain = 0
KCO2 142039Z 21005KT 43/07 A2989 RMK A01 T04300071  RH  012%=      5-min Rain = 0
KCO2 142040Z 23002KT 43/07 A2989 RMK A01 T04300069  RH  012%=      5-min Rain = 0
KCO2 142041Z 28006KT 43/07 A2989 RMK A01 T04300072  RH  012%=      5-min Rain = 0
KCO2 142042Z 28005KT 43/07 A2989 RMK A01 T04310071  RH  012%=      5-min Rain = 0
KCO2 142043Z 23002KT 43/07 A2988 RMK A01 T04320073  RH  012%=      5-min Rain = 0
KCO2 142044Z 20002KT 44/07 A2988 RMK A01 T04350074  RH  012%=      5-min Rain = 0
KCO2 142045Z 18003KT 44/07 A2989 RMK A01 T04360070  RH  011%=      5-min Rain = 0
KCO2 142046Z 17007KT 43/07 A2988 RMK A01 T04340070  RH  011%=      5-min Rain = 0
KCO2 142047Z 17007KT 43/07 A2988 RMK A01 T04340071  RH  011%=      5-min Rain = 0
KCO2 142048Z 22006KT 43/07 A2988 RMK A01 T04340070  RH  011%=      5-min Rain = 0
KCO2 142049Z 25004KT 43/07 A2988 RMK A01 T04340069  RH  011%=      5-min Rain = 0
KCO2 142050Z 22006KT 44/07 A2988 RMK A01 T04350070  RH  011%=      5-min Rain = 0
KCO2 142051Z 24009KT 44/07 A2988 RMK A01 T04360070  RH  011%=      5-min Rain = 0
KCO2 142052Z 21007KT 44/07 A2988 RMK A01 T04360069  RH  011%=      5-min Rain = 0
KCO2 142053Z 22009KT 44/07 A2988 RMK A01 T04370069  RH  011%=      5-min Rain = 0
KCO2 142054Z 21006KT 43/07 A2988 RMK A01 T04320068  RH  011%=      5-min Rain = 0
KCO2 142055Z 21011KT 43/07 A2988 RMK A01 T04320070  RH  011%=      5-min Rain = 0
KCO2 142056Z 22011KT 43/07 A2988 RMK A01 T04330069  RH  011%=      5-min Rain = 0
KCO2 142057Z 20010KT 43/07 A2988 RMK A01 T04340070  RH  011%=      5-min Rain = 0
KCO2 142058Z 19006KT 43/07 A2988 RMK A01 T04340070  RH  011%=      5-min Rain = 0
KCO2 142059Z 19008KT 44/07 A2988 RMK A01 T04350071  RH  011%=      5-min Rain = 0
KCO2 142100Z 19009KT 44/07 A2988 RMK A01 T04360072  RH  011%=      5-min Rain = 0
KCO2 142101Z 23009KT 44/07 A2988 RMK A01 T04400072  RH  011%=      5-min Rain = 0
KCO2 142102Z 25007KT 44/07 A2988 RMK A01 T04400069  RH  011%=      5-min Rain = 0
KCO2 142103Z 28005KT 44/07 A2988 RMK A01 T04350068  RH  011%=      5-min Rain = 0
KCO2 142104Z 30004KT 43/07 A2988 RMK A01 T04330067  RH  011%=      5-min Rain = 0
KCO2 142105Z 29003KT 43/07 A2987 RMK A01 T04310068  RH  011%=      5-min Rain = 0
KCO2 142106Z 31001KT 43/07 A2987 RMK A01 T04320067  RH  011%=      5-min Rain = 0
KCO2 142107Z 00000KT 43/07 A2987 RMK A01 T04330069  RH  011%=      5-min Rain = 0
KCO2 142108Z 13002KT 44/07 A2987 RMK A01 T04350074  RH  012%=      5-min Rain = 0
KCO2 142109Z 15007KT 44/07 A2987 RMK A01 T04380074  RH  011%=      5-min Rain = 0
KCO2 142110Z 15007KT 44/07 A2987 RMK A01 T04410067  RH  011%=      5-min Rain = 0
KCO2 142111Z 14004KT 44/07 A2987 RMK A01 T04390065  RH  011%=      5-min Rain = 0
KCO2 142112Z 12004KT 44/07 A2987 RMK A01 T04370065  RH  011%=      5-min Rain = 0
KCO2 142113Z 06004KT 43/07 A2987 RMK A01 T04320065  RH  011%=      5-min Rain = 0
KCO2 142114Z 11005KT 43/07 A2987 RMK A01 T04290067  RH  011%=      5-min Rain = 0
KCO2 142115Z 13004KT 43/07 A2987 RMK A01 T04320065  RH  011%=      5-min Rain = 0
KCO2 142116Z 20002KT 43/07 A2987 RMK A01 T04320066  RH  011%=      5-min Rain = 0
KCO2 142117Z 24003KT 43/06 A2987 RMK A01 T04320064  RH  011%=      5-min Rain = 0
KCO2 142118Z 28005KT 43/07 A2987 RMK A01 T04320069  RH  011%=      5-min Rain = 0
KCO2 142119Z 28004KT 43/07 A2987 RMK A01 T04310072  RH  012%=      5-min Rain = 0
KCO2 142120Z 22006KT 43/07 A2987 RMK A01 T04330074  RH  012%=      5-min Rain = 0
KCO2 142121Z 23009KT 43/07 A2987 RMK A01 T04340070  RH  011%=      5-min Rain = 0
KCO2 142122Z 22008KT 43/07 A2987 RMK A01 T04320069  RH  011%=      5-min Rain = 0
KCO2 142123Z 24008KT 43/07 A2987 RMK A01 T04310071  RH  012%=      5-min Rain = 0
KCO2 142124Z 24007KT 44/08 A2987 RMK A01 T04350075  RH  012%=      5-min Rain = 0
KCO2 142125Z 25005KT 44/07 A2987 RMK A01 T04380073  RH  011%=      5-min Rain = 0
KCO2 142126Z 25007G12KT 44/07 A2987 RMK A01 T04360074  RH  011%=      5-min Rain = 0
KCO2 142127Z 25005G11KT 44/07 A2987 RMK A01 T04350069  RH  011%=      5-min Rain = 0
KCO2 142128Z 29006KT 43/07 A2986 RMK A01 T04340070  RH  011%=      5-min Rain = 0
KCO2 142129Z 23009KT 44/07 A2986 RMK A01 T04360069  RH  011%=      5-min Rain = 0
KCO2 142130Z 22012KT 44/07 A2986 RMK A01 T04370069  RH  011%=      5-min Rain = 0
KCO2 142131Z 21010KT 44/07 A2986 RMK A01 T04410069  RH  011%=      5-min Rain = 0
KCO2 142132Z 21009KT 44/07 A2986 RMK A01 T04410068  RH  011%=      5-min Rain = 0
KCO2 142133Z 20009KT 44/07 A2986 RMK A01 T04380069  RH  011%=      5-min Rain = 0
KCO2 142134Z 19007KT 44/07 A2986 RMK A01 T04380069  RH  011%=      5-min Rain = 0
KCO2 142135Z 22008KT 44/07 A2986 RMK A01 T04380068  RH  011%=      5-min Rain = 0
KCO2 142136Z 20009KT 44/06 A2986 RMK A01 T04360064  RH  011%=      5-min Rain = 0
KCO2 142137Z 19008KT 43/07 A2986 RMK A01 T04330065  RH  011%=      5-min Rain = 0
KCO2 142138Z 19010KT 43/07 A2986 RMK A01 T04330065  RH  011%=      5-min Rain = 0
KCO2 142139Z 18007KT 43/06 A2986 RMK A01 T04310064  RH  011%=      5-min Rain = 0
KCO2 142140Z 18006KT 43/07 A2986 RMK A01 T04300065  RH  011%=      5-min Rain = 0
KCO2 142141Z 18012KT 43/07 A2986 RMK A01 T04290065  RH  011%=      5-min Rain = 0
KCO2 142142Z 19009KT 43/07 A2986 RMK A01 T04290065  RH  011%=      5-min Rain = 0
KCO2 142143Z 19007KT 43/07 A2986 RMK A01 T04300066  RH  011%=      5-min Rain = 0
KCO2 142144Z 19006KT 43/06 A2986 RMK A01 T04320064  RH  011%=      5-min Rain = 0
KCO2 142145Z 16005KT 43/07 A2986 RMK A01 T04310065  RH  011%=      5-min Rain = 0
KCO2 142146Z 13004KT 43/06 A2986 RMK A01 T04330064  RH  011%=      5-min Rain = 0
KCO2 142147Z 15003KT 43/06 A2986 RMK A01 T04330064  RH  011%=      5-min Rain = 0
KCO2 142148Z 19003KT 43/07 A2986 RMK A01 T04340065  RH  011%=      5-min Rain = 0
KCO2 142149Z 23002KT 44/06 A2986 RMK A01 T04350063  RH  011%=      5-min Rain = 0
KCO2 142150Z 12003KT 43/06 A2986 RMK A01 T04340064  RH  011%=      5-min Rain = 0
KCO2 142151Z 21004KT 44/07 A2986 RMK A01 T04350065  RH  011%=      5-min Rain = 0
KCO2 142152Z 22007KT 44/07 A2986 RMK A01 T04370065  RH  011%=      5-min Rain = 0
KCO2 142153Z 24009KT 44/07 A2986 RMK A01 T04400067  RH  011%=      5-min Rain = 0
KCO2 142154Z 23008G13KT 44/07 A2986 RMK A01 T04410067  RH  011%=      5-min Rain = 0
KCO2 142155Z 23010KT 44/07 A2986 RMK A01 T04410069  RH  011%=      5-min Rain = 0
KCO2 142156Z 22006G11KT 44/07 A2986 RMK A01 T04420068  RH  011%=      5-min Rain = 0
KCO2 142157Z 18004KT 44/07 A2986 RMK A01 T04370066  RH  011%=      5-min Rain = 0
KCO2 142158Z 24008KT 44/07 A2986 RMK A01 T04350068  RH  011%=      5-min Rain = 0
KCO2 142159Z 26006KT 44/07 A2986 RMK A01 T04360066  RH  011%=      5-min Rain = 0
KCO2 142200Z 24003KT 44/07 A2986 RMK A01 T04350065  RH  011%=      5-min Rain = 0
KCO2 142201Z 34001KT 43/07 A2985 RMK A01 T04330065  RH  011%=      5-min Rain = 0
KCO2 142202Z 28004KT 43/07 A2985 RMK A01 T04320065  RH  011%=      5-min Rain = 0
KCO2 142203Z 33004KT 43/07 A2985 RMK A01 T04290065  RH  011%=      5-min Rain = 0
KCO2 142204Z 30006KT 43/07 A2985 RMK A01 T04280065  RH  011%=      5-min Rain = 0
KCO2 142205Z 29004KT 43/06 A2985 RMK A01 T04260063  RH  011%=      5-min Rain = 0
KCO2 142206Z 27003KT 42/06 A2985 RMK A01 T04230064  RH  012%=      5-min Rain = 0
KCO2 142207Z 28007KT 42/07 A2985 RMK A01 T04230065  RH  012%=      5-min Rain = 0
KCO2 142208Z 26007KT 43/06 A2985 RMK A01 T04250064  RH  011%=      5-min Rain = 0
KCO2 142209Z 28007KT 43/07 A2985 RMK A01 T04280065  RH  011%=      5-min Rain = 0
KCO2 142210Z 28006KT 43/07 A2985 RMK A01 T04310065  RH  011%=      5-min Rain = 0
KCO2 142211Z 26005KT 43/07 A2985 RMK A01 T04330066  RH  011%=      5-min Rain = 0
KCO2 142212Z 24007G13KT 44/07 A2985 RMK A01 T04360067  RH  011%=      5-min Rain = 0
KCO2 142213Z 22010G17KT 44/07 A2985 RMK A01 T04380067  RH  011%=      5-min Rain = 0
KCO2 142214Z 25007KT 44/07 A2985 RMK A01 T04410068  RH  011%=      5-min Rain = 0
KCO2 142215Z 25006KT 44/07 A2985 RMK A01 T04410068  RH  011%=      5-min Rain = 0
KCO2 142216Z 21008KT 44/07 A2985 RMK A01 T04390067  RH  011%=      5-min Rain = 0
KCO2 142217Z 21006KT 44/07 A2985 RMK A01 T04380067  RH  011%=      5-min Rain = 0
KCO2 142218Z 21005KT 44/07 A2985 RMK A01 T04360067  RH  011%=      5-min Rain = 0
KCO2 142219Z 21006KT 44/07 A2985 RMK A01 T04360068  RH  011%=      5-min Rain = 0
KCO2 142220Z 22010KT 44/07 A2985 RMK A01 T04370067  RH  011%=      5-min Rain = 0
KCO2 142221Z 22009KT 44/07 A2985 RMK A01 T04360066  RH  011%=      5-min Rain = 0
KCO2 142222Z 22006KT 44/07 A2985 RMK A01 T04360066  RH  011%=      5-min Rain = 0
KCO2 142223Z 21004KT 44/07 A2985 RMK A01 T04360068  RH  011%=      5-min Rain = 0
KCO2 142224Z 21006G11KT 44/07 A2985 RMK A01 T04370069  RH  011%=      5-min Rain = 0
KCO2 142225Z 23010KT 44/07 A2985 RMK A01 T04390068  RH  011%=      5-min Rain = 0
KCO2 142226Z 23010KT 44/06 A2985 RMK A01 T04350064  RH  011%=      5-min Rain = 0
KCO2 142227Z 23011KT 43/06 A2985 RMK A01 T04290063  RH  011%=      5-min Rain = 0
KCO2 142228Z 23009KT 43/06 A2985 RMK A01 T04260064  RH  011%=      5-min Rain = 0
KCO2 142229Z 22009KT 42/07 A2985 RMK A01 T04240065  RH  012%=      5-min Rain = 0
KCO2 142230Z 21009KT 42/06 A2985 RMK A01 T04230064  RH  011%=      5-min Rain = 0
KCO2 142231Z 22006KT 42/06 A2985 RMK A01 T04220063  RH  011%=      5-min Rain = 0
KCO2 142232Z 25002KT 42/06 A2985 RMK A01 T04220064  RH  012%=      5-min Rain = 0
KCO2 142233Z 23005KT 42/07 A2985 RMK A01 T04230065  RH  012%=      5-min Rain = 0
KCO2 142234Z 23005KT 42/07 A2985 RMK A01 T04230065  RH  012%=      5-min Rain = 0
KCO2 142235Z 24006KT 42/06 A2985 RMK A01 T04230064  RH  012%=      5-min Rain = 0
KCO2 142236Z 23005KT 42/07 A2985 RMK A01 T04230065  RH  012%=      5-min Rain = 0
KCO2 142237Z 24005KT 42/07 A2985 RMK A01 T04230067  RH  012%=      5-min Rain = 0
KCO2 142238Z 21004KT 42/07 A2985 RMK A01 T04240067  RH  012%=      5-min Rain = 0
KCO2 142239Z 20003KT 42/07 A2985 RMK A01 T04240067  RH  012%=      5-min Rain = 0
KCO2 142240Z 19005KT 42/07 A2985 RMK A01 T04240065  RH  012%=      5-min Rain = 0
KCO2 142241Z 18003KT 42/06 A2985 RMK A01 T04220063  RH  011%=      5-min Rain = 0
KCO2 142242Z 23002KT 42/06 A2985 RMK A01 T04210064  RH  012%=      5-min Rain = 0
KCO2 142243Z 23002KT 42/06 A2985 RMK A01 T04210064  RH  012%=      5-min Rain = 0
KCO2 142244Z 24003KT 42/07 A2985 RMK A01 T04210065  RH  012%=      5-min Rain = 0
KCO2 142245Z 17003KT 42/06 A2985 RMK A01 T04210064  RH  012%=      5-min Rain = 0
KCO2 142246Z 04005KT 42/07 A2984 RMK A01 T04210066  RH  012%=      5-min Rain = 0
KCO2 142247Z 31008KT 42/07 A2985 RMK A01 T04200067  RH  012%=      5-min Rain = 0
KCO2 142248Z 30008KT 42/07 A2985 RMK A01 T04200070  RH  012%=      5-min Rain = 0
KCO2 142249Z 29007KT 42/07 A2985 RMK A01 T04190070  RH  012%=      5-min Rain = 0
KCO2 142250Z 29006KT 42/07 A2985 RMK A01 T04190070  RH  012%=      5-min Rain = 0
KCO2 142251Z 32005KT 42/07 A2985 RMK A01 T04190073  RH  013%=      5-min Rain = 0
KCO2 142252Z 32007KT 42/09 A2985 RMK A01 T04190088  RH  014%=      5-min Rain = 0
KCO2 142253Z 29010KT 42/10 A2985 RMK A01 T04180095  RH  015%=      5-min Rain = 0
KCO2 142254Z 31008KT 41/10 A2985 RMK A01 T04140099  RH  015%=      5-min Rain = 0
KCO2 142255Z 31007KT 41/10 A2985 RMK A01 T04120100  RH  016%=      5-min Rain = 0
KCO2 142256Z 32007KT 41/10 A2985 RMK A01 T04110101  RH  016%=      5-min Rain = 0
KCO2 142257Z 30007KT 41/10 A2985 RMK A01 T04100102  RH  016%=      5-min Rain = 0
KCO2 142258Z 32007KT 41/10 A2985 RMK A01 T04100103  RH  016%=      5-min Rain = 0
KCO2 142259Z 32007KT 41/10 A2985 RMK A01 T04120101  RH  016%=      5-min Rain = 0
KCO2 142300Z 32006KT 41/10 A2985 RMK A01 T04120101  RH  016%=      5-min Rain = 0
KCO2 142301Z 32007KT 41/10 A2985 RMK A01 T04130100  RH  016%=      5-min Rain = 0
KCO2 142302Z 31007KT 41/10 A2985 RMK A01 T04140099  RH  015%=      5-min Rain = 0
KCO2 142303Z 30012KT 41/10 A2985 RMK A01 T04140096  RH  015%=      5-min Rain = 0
KCO2 142304Z 31012KT 42/09 A2985 RMK A01 T04150093  RH  015%=      5-min Rain = 0
KCO2 142305Z 31010KT 42/09 A2985 RMK A01 T04150091  RH  015%=      5-min Rain = 0
KCO2 142306Z 31009KT 42/09 A2985 RMK A01 T04150091  RH  014%=      5-min Rain = 0
KCO2 142307Z 31009KT 42/09 A2985 RMK A01 T04150091  RH  014%=      5-min Rain = 0
KCO2 142308Z 32009KT 42/09 A2985 RMK A01 T04160090  RH  014%=      5-min Rain = 0
KCO2 142309Z 32009KT 42/09 A2985 RMK A01 T04160088  RH  014%=      5-min Rain = 0
KCO2 142310Z 33009KT 42/09 A2985 RMK A01 T04150088  RH  014%=      5-min Rain = 0
KCO2 142311Z 31009KT 42/09 A2985 RMK A01 T04150087  RH  014%=      5-min Rain = 0
KCO2 142312Z 31010KT 42/09 A2985 RMK A01 T04150086  RH  014%=      5-min Rain = 0
KCO2 142313Z 30009KT 41/08 A2985 RMK A01 T04140084  RH  014%=      5-min Rain = 0
KCO2 142314Z 30009KT 41/08 A2985 RMK A01 T04140082  RH  014%=      5-min Rain = 0
KCO2 142315Z 30007KT 41/08 A2985 RMK A01 T04140082  RH  014%=      5-min Rain = 0
KCO2 142316Z 31006KT 41/08 A2985 RMK A01 T04130082  RH  014%=      5-min Rain = 0
KCO2 142317Z 33007KT 41/08 A2985 RMK A01 T04130082  RH  014%=      5-min Rain = 0
KCO2 142318Z 29006KT 41/08 A2985 RMK A01 T04130083  RH  014%=      5-min Rain = 0
KCO2 142319Z 30006KT 41/08 A2985 RMK A01 T04130082  RH  014%=      5-min Rain = 0
KCO2 142320Z 30008KT 41/08 A2985 RMK A01 T04140082  RH  014%=      5-min Rain = 0
KCO2 142321Z 31009KT 42/08 A2985 RMK A01 T04150082  RH  014%=      5-min Rain = 0
KCO2 142322Z 30007KT 42/08 A2985 RMK A01 T04180083  RH  013%=      5-min Rain = 0
KCO2 142323Z 29008KT 42/08 A2985 RMK A01 T04210083  RH  013%=      5-min Rain = 0
KCO2 142324Z 30007KT 42/08 A2985 RMK A01 T04220080  RH  013%=      5-min Rain = 0
KCO2 142325Z 31007KT 42/08 A2985 RMK A01 T04200080  RH  013%=      5-min Rain = 0
KCO2 142326Z 32009KT 42/08 A2985 RMK A01 T04190082  RH  013%=      5-min Rain = 0
KCO2 142327Z 32011KT 42/08 A2985 RMK A01 T04180081  RH  013%=      5-min Rain = 0
KCO2 142328Z 32010KT 42/08 A2985 RMK A01 T04170080  RH  013%=      5-min Rain = 0
KCO2 142329Z 30009KT 42/08 A2985 RMK A01 T04150080  RH  013%=      5-min Rain = 0
KCO2 142330Z 29009KT 41/08 A2985 RMK A01 T04140080  RH  013%=      5-min Rain = 0
KCO2 142331Z 29008KT 41/08 A2985 RMK A01 T04130080  RH  014%=      5-min Rain = 0
KCO2 142332Z 29007KT 41/08 A2985 RMK A01 T04130081  RH  014%=      5-min Rain = 0
KCO2 142333Z 30008KT 41/08 A2985 RMK A01 T04130082  RH  014%=      5-min Rain = 0
KCO2 142334Z 30009KT 41/08 A2985 RMK A01 T04130080  RH  014%=      5-min Rain = 0
KCO2 142335Z 30008KT 41/08 A2985 RMK A01 T04130080  RH  014%=      5-min Rain = 0
KCO2 142336Z 32007KT 41/08 A2985 RMK A01 T04130080  RH  014%=      5-min Rain = 0
KCO2 142337Z 30007KT 41/08 A2985 RMK A01 T04120080  RH  014%=      5-min Rain = 0
KCO2 142338Z 31005KT 41/08 A2985 RMK A01 T04120080  RH  014%=      5-min Rain = 0
KCO2 142339Z 33007KT 41/08 A2985 RMK A01 T04130081  RH  014%=      5-min Rain = 0
KCO2 142340Z 31008KT 41/08 A2985 RMK A01 T04130081  RH  014%=      5-min Rain = 0
KCO2 142341Z 32008KT 41/08 A2985 RMK A01 T04120080  RH  014%=      5-min Rain = 0
KCO2 142342Z 29007KT 41/08 A2985 RMK A01 T04120081  RH  014%=      5-min Rain = 0
KCO2 142343Z 28007KT 41/08 A2985 RMK A01 T04110080  RH  014%=      5-min Rain = 0
KCO2 142344Z 29007KT 41/08 A2985 RMK A01 T04120081  RH  014%=      5-min Rain = 0
KCO2 142345Z 29007KT 41/08 A2985 RMK A01 T04110080  RH  014%=      5-min Rain = 0
KCO2 142346Z 30007KT 41/08 A2985 RMK A01 T04110080  RH  014%=      5-min Rain = 0
KCO2 142347Z 30006KT 41/08 A2985 RMK A01 T04100079  RH  014%=      5-min Rain = 0
KCO2 142348Z 30004KT 41/08 A2985 RMK A01 T04100079  RH  014%=      5-min Rain = 0
KCO2 142349Z 31004KT 41/08 A2985 RMK A01 T04100080  RH  014%=      5-min Rain = 0
KCO2 142350Z 31005KT 41/08 A2985 RMK A01 T04100080  RH  014%=      5-min Rain = 0
KCO2 142351Z 30004KT 41/08 A2985 RMK A01 T04100081  RH  014%=      5-min Rain = 0
KCO2 142352Z 30004KT 41/08 A2985 RMK A01 T04100081  RH  014%=      5-min Rain = 0
KCO2 142353Z 30004KT 41/08 A2985 RMK A01 T04100081  RH  014%=      5-min Rain = 0
KCO2 142354Z 30004KT 41/08 A2985 RMK A01 T04090082  RH  014%=      5-min Rain = 0
KCO2 142355Z 31003KT 41/08 A2985 RMK A01 T04090082  RH  014%=      5-min Rain = 0
KCO2 142356Z 30004KT 41/08 A2985 RMK A01 T04090080  RH  014%=      5-min Rain = 0
KCO2 142357Z 29004KT 41/08 A2985 RMK A01 T04090081  RH  014%=      5-min Rain = 0
KCO2 142358Z 31003KT 41/08 A2985 RMK A01 T04080081  RH  014%=      5-min Rain = 0
KCO2 142359Z 31004KT 41/08 A2985 RMK A01 T04080080  RH  014%=      5-min Rain = 0
KCO2 150000Z 31003KT 41/08 A2985 RMK A01 T04080080  RH  014%=      5-min Rain = 0
KCO2 150001Z 29003KT 41/08 A2985 RMK A01 T04080081  RH  014%=      5-min Rain = 0
KCO2 150002Z 28002KT 41/08 A2985 RMK A01 T04070081  RH  014%=      5-min Rain = 0
KCO2 150003Z 30002KT 41/08 A2985 RMK A01 T04070081  RH  014%=      5-min Rain = 0
KCO2 150004Z 29003KT 41/08 A2985 RMK A01 T04070083  RH  014%=      5-min Rain = 0
KCO2 150005Z 31002KT 41/08 A2985 RMK A01 T04060083  RH  014%=      5-min Rain = 0
KCO2 150006Z 28002KT 41/08 A2985 RMK A01 T04060081  RH  014%=      5-min Rain = 0
KCO2 150007Z 28002KT 41/08 A2985 RMK A01 T04050079  RH  014%=      5-min Rain = 0
KCO2 150008Z 29003KT 41/08 A2985 RMK A01 T04050079  RH  014%=      5-min Rain = 0
KCO2 150009Z 30002KT 41/08 A2985 RMK A01 T04050080  RH  014%=      5-min Rain = 0
KCO2 150010Z 31002KT 41/08 A2985 RMK A01 T04050082  RH  014%=      5-min Rain = 0
KCO2 150011Z 31003KT 40/08 A2985 RMK A01 T04040083  RH  014%=      5-min Rain = 0
KCO2 150012Z 31003KT 40/08 A2985 RMK A01 T04040082  RH  014%=      5-min Rain = 0
KCO2 150013Z 31002KT 40/08 A2985 RMK A01 T04030081  RH  014%=      5-min Rain = 0
KCO2 150014Z 31002KT 40/08 A2985 RMK A01 T04030079  RH  014%=      5-min Rain = 0
KCO2 150015Z 31002KT 40/08 A2985 RMK A01 T04030080  RH  014%=      5-min Rain = 0
KCO2 150016Z 30003KT 40/08 A2985 RMK A01 T04030082  RH  014%=      5-min Rain = 0
KCO2 150017Z 29004KT 40/08 A2985 RMK A01 T04020082  RH  015%=      5-min Rain = 0
KCO2 150018Z 30004KT 40/08 A2985 RMK A01 T04020083  RH  015%=      5-min Rain = 0
KCO2 150019Z 30005KT 40/08 A2985 RMK A01 T04010084  RH  015%=      5-min Rain = 0
KCO2 150020Z 30005KT 40/08 A2985 RMK A01 T04000084  RH  015%=      5-min Rain = 0
KCO2 150021Z 29006KT 40/08 A2985 RMK A01 T03990083  RH  015%=      5-min Rain = 0
KCO2 150022Z 30007KT 40/08 A2986 RMK A01 T03990082  RH  015%=      5-min Rain = 0
KCO2 150023Z 30007KT 40/08 A2986 RMK A01 T04000081  RH  015%=      5-min Rain = 0
KCO2 150024Z 30008KT 40/08 A2986 RMK A01 T04000081  RH  015%=      5-min Rain = 0
KCO2 150025Z 31006KT 40/08 A2986 RMK A01 T04010082  RH  015%=      5-min Rain = 0
KCO2 150026Z 32005KT 40/08 A2986 RMK A01 T04010083  RH  015%=      5-min Rain = 0
KCO2 150027Z 32005KT 40/08 A2986 RMK A01 T04000084  RH  015%=      5-min Rain = 0
KCO2 150028Z 33007KT 40/08 A2986 RMK A01 T03990084  RH  015%=      5-min Rain = 0
KCO2 150029Z 35010G15KT 40/09 A2986 RMK A01 T03990085  RH  015%=      5-min Rain = 0
KCO2 150030Z 00013KT 40/09 A2986 RMK A01 T03960093  RH  016%=      5-min Rain = 0
KCO2 150031Z 36013KT 39/09 A2986 RMK A01 T03920094  RH  017%=      5-min Rain = 0
KCO2 150032Z 00010KT 39/10 A2986 RMK A01 T03900095  RH  017%=      5-min Rain = 0
KCO2 150033Z 01010KT 39/10 A2986 RMK A01 T03880096  RH  017%=      5-min Rain = 0
KCO2 150034Z 01011KT 39/10 A2986 RMK A01 T03860096  RH  017%=      5-min Rain = 0
KCO2 150035Z 01012G19KT 39/10 A2986 RMK A01 T03860095  RH  017%=      5-min Rain = 0
KCO2 150036Z 01016KT 39/09 A2986 RMK A01 T03850092  RH  017%=      5-min Rain = 0
KCO2 150037Z 02014KT 39/09 A2986 RMK A01 T03850090  RH  017%=      5-min Rain = 0
KCO2 150038Z 02015KT 39/09 A2986 RMK A01 T03850090  RH  017%=      5-min Rain = 0
KCO2 150039Z 02013KT 39/09 A2986 RMK A01 T03850090  RH  017%=      5-min Rain = 0
KCO2 150040Z 02015KT 38/09 A2987 RMK A01 T03840090  RH  017%=      5-min Rain = 0
KCO2 150041Z 02013KT 38/09 A2987 RMK A01 T03840090  RH  017%=      5-min Rain = 0
KCO2 150042Z 02015KT 38/09 A2987 RMK A01 T03830090  RH  017%=      5-min Rain = 0
KCO2 150043Z 02014KT 38/09 A2987 RMK A01 T03830090  RH  017%=      5-min Rain = 0
KCO2 150044Z 01013KT 38/09 A2987 RMK A01 T03830091  RH  017%=      5-min Rain = 0
KCO2 150045Z 01013KT 38/09 A2987 RMK A01 T03820091  RH  017%=      5-min Rain = 0
KCO2 150046Z 01013KT 38/09 A2987 RMK A01 T03820091  RH  017%=      5-min Rain = 0
KCO2 150047Z 01012KT 38/09 A2987 RMK A01 T03810092  RH  017%=      5-min Rain = 0
KCO2 150048Z 00011KT 38/09 A2987 RMK A01 T03810093  RH  018%=      5-min Rain = 0
KCO2 150049Z 01011KT 38/09 A2987 RMK A01 T03810094  RH  018%=      5-min Rain = 0
KCO2 150050Z 01011KT 38/09 A2987 RMK A01 T03810094  RH  018%=      5-min Rain = 0
KCO2 150051Z 01012KT 38/10 A2987 RMK A01 T03800095  RH  018%=      5-min Rain = 0
KCO2 150052Z 02012KT 38/09 A2987 RMK A01 T03800094  RH  018%=      5-min Rain = 0
KCO2 150053Z 02012KT 38/09 A2987 RMK A01 T03800094  RH  018%=      5-min Rain = 0
KCO2 150054Z 03012KT 38/09 A2987 RMK A01 T03790094  RH  018%=      5-min Rain = 0
KCO2 150055Z 02016G24KT 38/09 A2987 RMK A01 T03790093  RH  018%=      5-min Rain = 0
KCO2 150056Z 02015G20KT 38/09 A2987 RMK A01 T03790092  RH  018%=      5-min Rain = 0
KCO2 150057Z 02017KT 38/09 A2987 RMK A01 T03790092  RH  018%=      5-min Rain = 0
KCO2 150058Z 02016G21KT 38/09 A2987 RMK A01 T03790092  RH  018%=      5-min Rain = 0
KCO2 150059Z 02017G23KT 38/09 A2988 RMK A01 T03790092  RH  018%=      5-min Rain = 0
KCO2 150100Z 02016KT 38/09 A2988 RMK A01 T03790092  RH  018%=      5-min Rain = 0
KCO2 150101Z 02012KT 38/09 A2988 RMK A01 T03790092  RH  018%=      5-min Rain = 0
KCO2 150102Z 02015KT 38/09 A2988 RMK A01 T03780092  RH  018%=      5-min Rain = 0
KCO2 150103Z 02014KT 38/09 A2988 RMK A01 T03780092  RH  018%=      5-min Rain = 0
KCO2 150104Z 01013KT 38/09 A2988 RMK A01 T03780093  RH  018%=      5-min Rain = 0
KCO2 150105Z 02012KT 38/09 A2988 RMK A01 T03770094  RH  018%=      5-min Rain = 0
KCO2 150106Z 02013KT 38/09 A2988 RMK A01 T03770094  RH  018%=      5-min Rain = 0
KCO2 150107Z 02011KT 38/09 A2988 RMK A01 T03770094  RH  018%=      5-min Rain = 0
KCO2 150108Z 02013KT 38/10 A2988 RMK A01 T03760095  RH  018%=      5-min Rain = 0
KCO2 150109Z 02013KT 38/09 A2989 RMK A01 T03760094  RH  018%=      5-min Rain = 0
KCO2 150110Z 01013KT 38/10 A2989 RMK A01 T03760095  RH  018%=      5-min Rain = 0
KCO2 150111Z 02012KT 38/10 A2989 RMK A01 T03750095  RH  018%=      5-min Rain = 0
KCO2 150112Z 02010KT 38/10 A2989 RMK A01 T03750096  RH  019%=      5-min Rain = 0
KCO2 150113Z 02009KT 37/10 A2989 RMK A01 T03740096  RH  019%=      5-min Rain = 0
KCO2 150114Z 02009KT 37/10 A2989 RMK A01 T03740097  RH  019%=      5-min Rain = 0
KCO2 150115Z 01010KT 37/10 A2989 RMK A01 T03730097  RH  019%=      5-min Rain = 0
KCO2 150116Z 01010KT 37/10 A2989 RMK A01 T03730097  RH  019%=      5-min Rain = 0
KCO2 150117Z 01009KT 37/10 A2989 RMK A01 T03720097  RH  019%=      5-min Rain = 0
KCO2 150118Z 02009KT 37/10 A2989 RMK A01 T03710097  RH  019%=      5-min Rain = 0
KCO2 150119Z 02008KT 37/10 A2989 RMK A01 T03710097  RH  019%=      5-min Rain = 0
KCO2 150120Z 03009KT 37/10 A2989 RMK A01 T03710097  RH  019%=      5-min Rain = 0
KCO2 150121Z 04009KT 37/10 A2989 RMK A01 T03710097  RH  019%=      5-min Rain = 0
KCO2 150122Z 03009G20KT 37/10 A2989 RMK A01 T03710097  RH  019%=      5-min Rain = 0
KCO2 150123Z 02012G18KT 37/10 A2989 RMK A01 T03720095  RH  019%=      5-min Rain = 0
KCO2 150124Z 02009KT 38/10 A2989 RMK A01 T03750095  RH  018%=      5-min Rain = 0
KCO2 150125Z 03012KT 38/10 A2989 RMK A01 T03760095  RH  018%=      5-min Rain = 0
KCO2 150126Z 03011KT 38/10 A2989 RMK A01 T03760095  RH  018%=      5-min Rain = 0
KCO2 150127Z 03009KT 38/10 A2989 RMK A01 T03760095  RH  018%=      5-min Rain = 0
KCO2 150128Z 02007KT 38/10 A2989 RMK A01 T03760096  RH  018%=      5-min Rain = 0
KCO2 150129Z 31008KT 38/10 A299 RMK A01 T03750097  RH  019%=      5-min Rain = 0
KCO2 150130Z 30008G13KT 37/10 A299 RMK A01 T03720096  RH  019%=      5-min Rain = 0
KCO2 150131Z 30011KT 37/10 A299 RMK A01 T03710096  RH  019%=      5-min Rain = 0
KCO2 150132Z 30013KT 37/10 A299 RMK A01 T03710095  RH  019%=      5-min Rain = 0
KCO2 150133Z 30012KT 37/09 A299 RMK A01 T03720094  RH  019%=      5-min Rain = 0
KCO2 150134Z 30011KT 37/09 A299 RMK A01 T03730094  RH  018%=      5-min Rain = 0
KCO2 150135Z 31010KT 37/09 A299 RMK A01 T03740094  RH  018%=      5-min Rain = 0
KCO2 150136Z 31012KT 37/09 A299 RMK A01 T03740093  RH  018%=      5-min Rain = 0
KCO2 150137Z 30009KT 38/09 A299 RMK A01 T03750093  RH  018%=      5-min Rain = 0
KCO2 150138Z 31011KT 38/09 A299 RMK A01 T03750094  RH  018%=      5-min Rain = 0
KCO2 150139Z 32012KT 38/09 A299 RMK A01 T03750094  RH  018%=      5-min Rain = 0
KCO2 150140Z 32011KT 37/09 A299 RMK A01 T03740093  RH  018%=      5-min Rain = 0
KCO2 150141Z 32010KT 37/09 A299 RMK A01 T03740093  RH  018%=      5-min Rain = 0
KCO2 150142Z 32009KT 37/09 A299 RMK A01 T03740092  RH  018%=      5-min Rain = 0
KCO2 150143Z 32009KT 38/09 A299 RMK A01 T03750092  RH  018%=      5-min Rain = 0
KCO2 150144Z 32010KT 38/09 A299 RMK A01 T03750093  RH  018%=      5-min Rain = 0
KCO2 150145Z 32010KT 37/09 A299 RMK A01 T03740092  RH  018%=      5-min Rain = 0
KCO2 150146Z 32009KT 37/09 A299 RMK A01 T03740092  RH  018%=      5-min Rain = 0
KCO2 150147Z 32010KT 38/09 A299 RMK A01 T03750093  RH  018%=      5-min Rain = 0
KCO2 150148Z 33012KT 38/09 A299 RMK A01 T03750090  RH  018%=      5-min Rain = 0
KCO2 150149Z 33012KT 38/09 A299 RMK A01 T03780090  RH  018%=      5-min Rain = 0
KCO2 150150Z 32009KT 38/09 A299 RMK A01 T03800091  RH  017%=      5-min Rain = 0
KCO2 150151Z 32011KT 38/09 A299 RMK A01 T03800090  RH  017%=      5-min Rain = 0
KCO2 150152Z 32010KT 38/09 A299 RMK A01 T03810089  RH  017%=      5-min Rain = 0
KCO2 150153Z 33008KT 38/09 A299 RMK A01 T03820089  RH  017%=      5-min Rain = 0
KCO2 150154Z 33007KT 38/09 A299 RMK A01 T03830090  RH  017%=      5-min Rain = 0
KCO2 150155Z 33008KT 38/09 A299 RMK A01 T03810091  RH  017%=      5-min Rain = 0
KCO2 150156Z 33009KT 38/09 A299 RMK A01 T03790091  RH  018%=      5-min Rain = 0
KCO2 150157Z 34009KT 38/09 A2991 RMK A01 T03770091  RH  018%=      5-min Rain = 0
KCO2 150158Z 35009KT 38/09 A2991 RMK A01 T03760090  RH  018%=      5-min Rain = 0
KCO2 150159Z 35010KT 38/09 A2991 RMK A01 T03760090  RH  018%=      5-min Rain = 0
KCO2 150200Z 00011KT 38/09 A2991 RMK A01 T03760090  RH  018%=      5-min Rain = 0
KCO2 150201Z 01014G24KT 38/09 A2991 RMK A01 T03770088  RH  017%=      5-min Rain = 0
KCO2 150202Z 02018KT 38/09 A2991 RMK A01 T03770088  RH  017%=      5-min Rain = 0
KCO2 150203Z 01018KT 38/09 A2991 RMK A01 T03780089  RH  017%=      5-min Rain = 0
KCO2 150204Z 02016KT 38/09 A2991 RMK A01 T03780090  RH  018%=      5-min Rain = 0
KCO2 150205Z 02015KT 38/09 A2991 RMK A01 T03770091  RH  018%=      5-min Rain = 0
KCO2 150206Z 02016KT 38/09 A2991 RMK A01 T03760090  RH  018%=      5-min Rain = 0
KCO2 150207Z 02017KT 38/09 A2992 RMK A01 T03760090  RH  018%=      5-min Rain = 0
KCO2 150208Z 01016KT 38/09 A2992 RMK A01 T03760092  RH  018%=      5-min Rain = 0
KCO2 150209Z 02017KT 38/09 A2992 RMK A01 T03760093  RH  018%=      5-min Rain = 0
KCO2 150210Z 02016KT 38/09 A2992 RMK A01 T03760094  RH  018%=      5-min Rain = 0
KCO2 150211Z 03013KT 38/10 A2992 RMK A01 T03760095  RH  018%=      5-min Rain = 0
KCO2 150212Z 04012KT 38/10 A2992 RMK A01 T03750095  RH  018%=      5-min Rain = 0
KCO2 150213Z 04010KT 38/10 A2992 RMK A01 T03750095  RH  018%=      5-min Rain = 0
KCO2 150214Z 06009KT 37/10 A2992 RMK A01 T03740095  RH  019%=      5-min Rain = 0
KCO2 150215Z 05010KT 37/10 A2992 RMK A01 T03740096  RH  019%=      5-min Rain = 0
KCO2 150216Z 06011KT 37/10 A2992 RMK A01 T03730095  RH  019%=      5-min Rain = 0
KCO2 150217Z 06012KT 37/10 A2991 RMK A01 T03730095  RH  019%=      5-min Rain = 0
KCO2 150218Z 05012KT 37/10 A2991 RMK A01 T03730096  RH  019%=      5-min Rain = 0
KCO2 150219Z 04012KT 37/10 A2991 RMK A01 T03730096  RH  019%=      5-min Rain = 0
KCO2 150220Z 03013KT 37/10 A2991 RMK A01 T03710098  RH  019%=      5-min Rain = 0
KCO2 150221Z 04014KT 37/10 A2991 RMK A01 T03700101  RH  020%=      5-min Rain = 0
KCO2 150222Z 04013KT 37/10 A2991 RMK A01 T03680102  RH  020%=      5-min Rain = 0
KCO2 150223Z 05011KT 37/10 A299 RMK A01 T03670102  RH  020%=      5-min Rain = 0
KCO2 150224Z 04011KT 37/10 A299 RMK A01 T03660103  RH  020%=      5-min Rain = 0
KCO2 150225Z 04011KT 37/10 A299 RMK A01 T03650102  RH  020%=      5-min Rain = 0
KCO2 150226Z 07016KT 36/10 A299 RMK A01 T03640102  RH  021%=      5-min Rain = 0
KCO2 150227Z 05010KT 36/10 A299 RMK A01 T03640103  RH  021%=      5-min Rain = 0
KCO2 150228Z 03014KT 36/10 A299 RMK A01 T03640104  RH  021%=      5-min Rain = 0
KCO2 150229Z 03013KT 36/11 A299 RMK A01 T03640105  RH  021%=      5-min Rain = 0
KCO2 150230Z 03011KT 36/10 A299 RMK A01 T03640103  RH  021%=      5-min Rain = 0
KCO2 150231Z 03014KT 37/10 A299 RMK A01 T03650097  RH  020%=      5-min Rain = 0
KCO2 150232Z 02018G29KT 37/09 A2989 RMK A01 T03680094  RH  019%=      5-min Rain = 0
KCO2 150233Z 03026G32KT 37/09 A2989 RMK A01 T03730086  RH  017%=      5-min Rain = 0
KCO2 150234Z 06022KT 38/08 A299 RMK A01 T03790084  RH  017%=      5-min Rain = 0
KCO2 150235Z 06017KT 38/08 A299 RMK A01 T03800084  RH  017%=      5-min Rain = 0
KCO2 150236Z 07011KT 38/08 A299 RMK A01 T03810083  RH  016%=      5-min Rain = 0
KCO2 150237Z 06010G16KT 38/08 A299 RMK A01 T03830079  RH  016%=      5-min Rain = 0
KCO2 150238Z 08010G15KT 39/08 A299 RMK A01 T03850078  RH  015%=      5-min Rain = 0
KCO2 150239Z 06014KT 39/08 A299 RMK A01 T03860078  RH  015%=      5-min Rain = 0
KCO2 150240Z 05014KT 38/09 A299 RMK A01 T03840090  RH  017%=      5-min Rain = 0
KCO2 150241Z 05018KT 38/10 A299 RMK A01 T03750103  RH  019%=      5-min Rain = 0
KCO2 150242Z 05017G22KT 37/11 A299 RMK A01 T03650109  RH  021%=      5-min Rain = 0
KCO2 150243Z 04014G19KT 36/11 A299 RMK A01 T03590110  RH  022%=      5-min Rain = 0
KCO2 150244Z 04015G21KT 36/11 A299 RMK A01 T03550111  RH  023%=      5-min Rain = 0
KCO2 150245Z 04020G27KT 35/11 A299 RMK A01 T03530111  RH  023%=      5-min Rain = 0
KCO2 150246Z 04021G27KT 35/11 A299 RMK A01 T03520111  RH  023%=      5-min Rain = 0
KCO2 150247Z 05022KT 35/11 A299 RMK A01 T03520111  RH  023%=      5-min Rain = 0
KCO2 150248Z 05020G26KT 35/11 A299 RMK A01 T03510111  RH  023%=      5-min Rain = 0
KCO2 150249Z 05022G31KT 35/11 A299 RMK A01 T03520111  RH  023%=      5-min Rain = 0
KCO2 150250Z 05021G27KT 35/11 A299 RMK A01 T03520111  RH  023%=      5-min Rain = 0
KCO2 150251Z 05019KT 35/11 A299 RMK A01 T03510110  RH  023%=      5-min Rain = 0
KCO2 150252Z 06020KT 35/11 A299 RMK A01 T03510110  RH  023%=      5-min Rain = 0
KCO2 150253Z 05021G27KT 35/11 A299 RMK A01 T03520109  RH  023%=      5-min Rain = 0
KCO2 150254Z 05017G23KT 35/11 A299 RMK A01 T03510109  RH  023%=      5-min Rain = 0
KCO2 150255Z 05021KT 35/11 A299 RMK A01 T03520109  RH  023%=      5-min Rain = 0
KCO2 150256Z 04020KT 35/11 A299 RMK A01 T03520109  RH  023%=      5-min Rain = 0
KCO2 150257Z 05025G30KT 35/11 A299 RMK A01 T03520108  RH  023%=      5-min Rain = 0
KCO2 150258Z 05022G27KT 35/11 A2989 RMK A01 T03530108  RH  023%=      5-min Rain = 0
KCO2 150259Z 05020G25KT 35/11 A299 RMK A01 T03530108  RH  023%=      5-min Rain = 0
KCO2 150300Z 05018G28KT 35/11 A299 RMK A01 T03530107  RH  023%=      5-min Rain = 0
KCO2 150301Z 05020KT 35/11 A299 RMK A01 T03530107  RH  022%=      5-min Rain = 0
KCO2 150302Z 06019KT 35/11 A299 RMK A01 T03530107  RH  022%=      5-min Rain = 0
KCO2 150303Z 06020KT 35/11 A299 RMK A01 T03530107  RH  023%=      5-min Rain = 0
KCO2 150304Z 06019G24KT 35/11 A299 RMK A01 T03520108  RH  023%=      5-min Rain = 0
KCO2 150305Z 06017G22KT 35/11 A299 RMK A01 T03520108  RH  023%=      5-min Rain = 0
KCO2 150306Z 06015KT 35/11 A299 RMK A01 T03520108  RH  023%=      5-min Rain = 0
KCO2 150307Z 07016G22KT 35/11 A299 RMK A01 T03510108  RH  023%=      5-min Rain = 0
KCO2 150308Z 06016G24KT 35/11 A299 RMK A01 T03500108  RH  023%=      5-min Rain = 0
KCO2 150309Z 06016G21KT 35/11 A299 RMK A01 T03500108  RH  023%=      5-min Rain = 0
KCO2 150310Z 06017KT 35/11 A299 RMK A01 T03500108  RH  023%=      5-min Rain = 0
KCO2 150311Z 06015G21KT 35/11 A299 RMK A01 T03500107  RH  023%=      5-min Rain = 0
KCO2 150312Z 06015KT 35/11 A299 RMK A01 T03500107  RH  023%=      5-min Rain = 0
KCO2 150313Z 06016KT 35/11 A299 RMK A01 T03490106  RH  023%=      5-min Rain = 0
KCO2 150314Z 06016G21KT 35/11 A299 RMK A01 T03490105  RH  023%=      5-min Rain = 0
KCO2 150315Z 07019G26KT 35/11 A299 RMK A01 T03500105  RH  023%=      5-min Rain = 0
KCO2 150316Z 06019KT 35/11 A299 RMK A01 T03500105  RH  023%=      5-min Rain = 0
KCO2 150317Z 06020G27KT 35/11 A299 RMK A01 T03500105  RH  023%=      5-min Rain = 0
KCO2 150318Z 06021G26KT 35/11 A299 RMK A01 T03500107  RH  023%=      5-min Rain = 0
KCO2 150319Z 06019G24KT 35/11 A2991 RMK A01 T03500107  RH  023%=      5-min Rain = 0
KCO2 150320Z 06018G23KT 35/11 A2991 RMK A01 T03500107  RH  023%=      5-min Rain = 0
KCO2 150321Z 06018G23KT 35/11 A2991 RMK A01 T03490106  RH  023%=      5-min Rain = 0
KCO2 150322Z 07018KT 35/11 A2991 RMK A01 T03490107  RH  023%=      5-min Rain = 0
KCO2 150323Z 07019KT 35/11 A2991 RMK A01 T03490107  RH  023%=      5-min Rain = 0
KCO2 150324Z 07017G23KT 35/11 A2991 RMK A01 T03490107  RH  023%=      5-min Rain = 0
KCO2 150325Z 06015KT 35/11 A2991 RMK A01 T03490107  RH  023%=      5-min Rain = 0
KCO2 150326Z 07014G19KT 35/11 A2991 RMK A01 T03490107  RH  023%=      5-min Rain = 0
KCO2 150327Z 06016KT 35/11 A2991 RMK A01 T03480106  RH  023%=      5-min Rain = 0
KCO2 150328Z 06016G24KT 35/11 A2991 RMK A01 T03480106  RH  023%=      5-min Rain = 0
KCO2 150329Z 06018KT 35/11 A2991 RMK A01 T03480106  RH  023%=      5-min Rain = 0
KCO2 150330Z 06017G23KT 35/11 A2991 RMK A01 T03480105  RH  023%=      5-min Rain = 0
KCO2 150331Z 06013KT 35/11 A2991 RMK A01 T03490106  RH  023%=      5-min Rain = 0
KCO2 150332Z 06016KT 35/11 A2991 RMK A01 T03490106  RH  023%=      5-min Rain = 0
KCO2 150333Z 05015KT 35/11 A2991 RMK A01 T03490105  RH  023%=      5-min Rain = 0
KCO2 150334Z 06012KT 35/11 A2991 RMK A01 T03490105  RH  023%=      5-min Rain = 0
KCO2 150335Z 06012KT 35/11 A2991 RMK A01 T03490105  RH  023%=      5-min Rain = 0
KCO2 150336Z 06015KT 35/11 A2991 RMK A01 T03480105  RH  023%=      5-min Rain = 0
KCO2 150337Z 06016KT 35/11 A2991 RMK A01 T03480105  RH  023%=      5-min Rain = 0
KCO2 150338Z 05015KT 35/11 A2991 RMK A01 T03480105  RH  023%=      5-min Rain = 0
KCO2 150339Z 05014KT 35/11 A2991 RMK A01 T03480105  RH  023%=      5-min Rain = 0
KCO2 150340Z 05011KT 35/11 A2991 RMK A01 T03480105  RH  023%=      5-min Rain = 0
KCO2 150341Z 05012KT 35/11 A2991 RMK A01 T03480105  RH  023%=      5-min Rain = 0
KCO2 150342Z 05011KT 35/11 A2991 RMK A01 T03470105  RH  023%=      5-min Rain = 0
KCO2 150343Z 04011KT 35/11 A2991 RMK A01 T03470106  RH  023%=      5-min Rain = 0
KCO2 150344Z 04011KT 35/11 A2992 RMK A01 T03460106  RH  023%=      5-min Rain = 0
KCO2 150345Z 04011KT 35/11 A2992 RMK A01 T03450105  RH  023%=      5-min Rain = 0
KCO2 150346Z 05011KT 35/11 A2992 RMK A01 T03450105  RH  023%=      5-min Rain = 0
KCO2 150347Z 04013KT 35/11 A2992 RMK A01 T03450105  RH  023%=      5-min Rain = 0
KCO2 150348Z 03009KT 35/11 A2992 RMK A01 T03460105  RH  023%=      5-min Rain = 0
KCO2 150349Z 03011KT 35/11 A2992 RMK A01 T03460105  RH  023%=      5-min Rain = 0
KCO2 150350Z 03011KT 35/11 A2992 RMK A01 T03460105  RH  023%=      5-min Rain = 0
KCO2 150351Z 04010KT 35/11 A2992 RMK A01 T03460105  RH  023%=      5-min Rain = 0
KCO2 150352Z 04011KT 35/11 A2992 RMK A01 T03460105  RH  023%=      5-min Rain = 0
KCO2 150353Z 04012KT 35/11 A2992 RMK A01 T03460105  RH  023%=      5-min Rain = 0
KCO2 150354Z 04010KT 35/11 A2992 RMK A01 T03460105  RH  023%=      5-min Rain = 0
KCO2 150355Z 04011KT 35/10 A2992 RMK A01 T03450104  RH  023%=      5-min Rain = 0
KCO2 150356Z 03010KT 35/10 A2992 RMK A01 T03450104  RH  023%=      5-min Rain = 0
KCO2 150357Z 03009KT 35/11 A2992 RMK A01 T03450105  RH  023%=      5-min Rain = 0
KCO2 150358Z 03009KT 35/11 A2992 RMK A01 T03450105  RH  023%=      5-min Rain = 0
KCO2 150359Z 04009KT 34/10 A2992 RMK A01 T03440104  RH  023%=      5-min Rain = 0
KCO2 150400Z 04009KT 34/11 A2992 RMK A01 T03440105  RH  023%=      5-min Rain = 0
KCO2 150401Z 04009KT 34/11 A2992 RMK A01 T03440105  RH  023%=      5-min Rain = 0
KCO2 150402Z 04010KT 34/11 A2992 RMK A01 T03440105  RH  023%=      5-min Rain = 0
KCO2 150403Z 04011KT 34/11 A2992 RMK A01 T03440105  RH  023%=      5-min Rain = 0
KCO2 150404Z 03013G18KT 34/11 A2992 RMK A01 T03430105  RH  023%=      5-min Rain = 0
KCO2 150405Z 04010KT 34/11 A2992 RMK A01 T03440106  RH  023%=      5-min Rain = 0
KCO2 150406Z 04013KT 35/11 A2992 RMK A01 T03450106  RH  023%=      5-min Rain = 0
KCO2 150407Z 04013KT 34/11 A2993 RMK A01 T03440106  RH  023%=      5-min Rain = 0
KCO2 150408Z 04011G16KT 35/11 A2992 RMK A01 T03450107  RH  023%=      5-min Rain = 0
KCO2 150409Z 04011KT 35/11 A2992 RMK A01 T03450107  RH  024%=      5-min Rain = 0
KCO2 150410Z 04012KT 35/11 A2992 RMK A01 T03450107  RH  024%=      5-min Rain = 0
KCO2 150411Z 04010KT 34/11 A2992 RMK A01 T03440108  RH  024%=      5-min Rain = 0
KCO2 150412Z 04011KT 34/11 A2993 RMK A01 T03440108  RH  024%=      5-min Rain = 0
KCO2 150413Z 04012KT 34/11 A2993 RMK A01 T03430108  RH  024%=      5-min Rain = 0
KCO2 150414Z 04012KT 34/11 A2993 RMK A01 T03430108  RH  024%=      5-min Rain = 0
KCO2 150415Z 04009KT 34/11 A2993 RMK A01 T03440109  RH  024%=      5-min Rain = 0
KCO2 150416Z 04008KT 34/11 A2993 RMK A01 T03430110  RH  024%=      5-min Rain = 0
KCO2 150417Z 04010KT 34/11 A2993 RMK A01 T03420109  RH  024%=      5-min Rain = 0
KCO2 150418Z 04008KT 34/11 A2993 RMK A01 T03420110  RH  024%=      5-min Rain = 0
KCO2 150419Z 04011KT 34/11 A2993 RMK A01 T03410110  RH  024%=      5-min Rain = 0
KCO2 150420Z 04010KT 34/11 A2993 RMK A01 T03410110  RH  025%=      5-min Rain = 0
KCO2 150421Z 04011KT 34/11 A2993 RMK A01 T03410110  RH  025%=      5-min Rain = 0
KCO2 150422Z 04012KT 34/11 A2993 RMK A01 T03410110  RH  025%=      5-min Rain = 0
KCO2 150423Z 04010KT 34/11 A2993 RMK A01 T03410110  RH  025%=      5-min Rain = 0
KCO2 150424Z 04012KT 34/11 A2993 RMK A01 T03410111  RH  025%=      5-min Rain = 0
KCO2 150425Z 04011KT 34/11 A2993 RMK A01 T03410111  RH  025%=      5-min Rain = 0
KCO2 150426Z 04011KT 34/11 A2993 RMK A01 T03410111  RH  025%=      5-min Rain = 0
KCO2 150427Z 03009KT 34/11 A2993 RMK A01 T03410112  RH  025%=      5-min Rain = 0
KCO2 150428Z 03010KT 34/11 A2993 RMK A01 T03400111  RH  025%=      5-min Rain = 0
KCO2 150429Z 03009KT 34/11 A2993 RMK A01 T03400112  RH  025%=      5-min Rain = 0
KCO2 150430Z 03011KT 34/11 A2993 RMK A01 T03390112  RH  025%=      5-min Rain = 0
KCO2 150431Z 02009KT 34/11 A2993 RMK A01 T03390113  RH  025%=      5-min Rain = 0
KCO2 150432Z 03010KT 34/11 A2993 RMK A01 T03380113  RH  025%=      5-min Rain = 0
KCO2 150433Z 02012KT 34/11 A2993 RMK A01 T03380113  RH  025%=      5-min Rain = 0
KCO2 150434Z 03010KT 34/11 A2993 RMK A01 T03380113  RH  026%=      5-min Rain = 0
KCO2 150435Z 02010KT 34/11 A2993 RMK A01 T03370114  RH  026%=      5-min Rain = 0
KCO2 150436Z 02009KT 34/11 A2993 RMK A01 T03370114  RH  026%=      5-min Rain = 0
KCO2 150437Z 02011KT 34/11 A2993 RMK A01 T03370114  RH  026%=      5-min Rain = 0
KCO2 150438Z 02009KT 34/11 A2993 RMK A01 T03370114  RH  026%=      5-min Rain = 0
KCO2 150439Z 02009KT 34/11 A2993 RMK A01 T03360114  RH  026%=      5-min Rain = 0
KCO2 150440Z 03011KT 34/11 A2994 RMK A01 T03350114  RH  026%=      5-min Rain = 0
KCO2 150441Z 02009KT 33/11 A2994 RMK A01 T03340114  RH  026%=      5-min Rain = 0
KCO2 150442Z 02009KT 33/11 A2994 RMK A01 T03340114  RH  026%=      5-min Rain = 0
KCO2 150443Z 02010KT 34/12 A2994 RMK A01 T03350115  RH  026%=      5-min Rain = 0
KCO2 150444Z 02012KT 33/11 A2994 RMK A01 T03340114  RH  026%=      5-min Rain = 0
KCO2 150445Z 03010KT 33/11 A2994 RMK A01 T03340114  RH  026%=      5-min Rain = 0
KCO2 150446Z 03010KT 33/11 A2994 RMK A01 T03340114  RH  026%=      5-min Rain = 0
KCO2 150447Z 03010KT 33/11 A2994 RMK A01 T03340114  RH  026%=      5-min Rain = 0
KCO2 150448Z 04010KT 33/11 A2994 RMK A01 T03340114  RH  026%=      5-min Rain = 0
KCO2 150449Z 03010KT 33/11 A2994 RMK A01 T03340114  RH  026%=      5-min Rain = 0
KCO2 150450Z 03009KT 33/11 A2994 RMK A01 T03340114  RH  026%=      5-min Rain = 0
KCO2 150451Z 03008KT 33/11 A2994 RMK A01 T03330114  RH  026%=      5-min Rain = 0
KCO2 150452Z 03009KT 33/11 A2994 RMK A01 T03320114  RH  026%=      5-min Rain = 0
KCO2 150453Z 02009KT 33/11 A2994 RMK A01 T03320114  RH  027%=      5-min Rain = 0
KCO2 150454Z 02009KT 33/11 A2994 RMK A01 T03310114  RH  027%=      5-min Rain = 0
KCO2 150455Z 03008KT 33/11 A2994 RMK A01 T03310114  RH  027%=      5-min Rain = 0
KCO2 150456Z 02010KT 33/11 A2994 RMK A01 T03310114  RH  027%=      5-min Rain = 0
KCO2 150457Z 03011KT 33/11 A2994 RMK A01 T03300114  RH  027%=      5-min Rain = 0
KCO2 150458Z 03009KT 33/11 A2994 RMK A01 T03300113  RH  027%=      5-min Rain = 0
KCO2 150459Z 02010KT 33/11 A2994 RMK A01 T03300114  RH  027%=      5-min Rain = 0

Page generated in 0.1187 seconds.